<?xml version="1.0" encoding="UTF-8" standalone="no" ?><gpx xmlns="http://www.topografix.com/GPX/1/1" xmlns:gpxx="http://www.garmin.com/xmlschemas/GpxExtensions/v3" xmlns:wptx1="http://www.garmin.com/xmlschemas/WaypointExtension/v1" xmlns:gpxtpx="http://www.garmin.com/xmlschemas/TrackPointExtension/v1" creator="GuideVTT.com" version="1.1" xmlns:xsi="http://www.w3.org/2001/XMLSchema-instance" xsi:schemaLocation="http://www.topografix.com/GPX/1/1 http://www.topografix.com/GPX/1/1/gpx.xsd http://www.garmin.com/xmlschemas/GpxExtensions/v3 http://www8.garmin.com/xmlschemas/GpxExtensionsv3.xsd http://www.garmin.com/xmlschemas/WaypointExtension/v1 http://www8.garmin.com/xmlschemas/WaypointExtensionv1.xsd http://www.garmin.com/xmlschemas/TrackPointExtension/v1 http://www.garmin.com/xmlschemas/TrackPointExtensionv1.xsd">
<metadata><link href="http://www.garmin.com"><text>Garmin International</text></link><time>2013-06-22T15:13:50Z</time></metadata>
<trk><name>2022rp2.gpx</name><extensions><gpxx:TrackExtension><gpxx:DisplayColor>Cyan</gpxx:DisplayColor></gpxx:TrackExtension></extensions><trkseg>
<trkpt lat="46.22347" lon="7.28302"><ele>473.8</ele><time>2022-05-08T13:56:35Z</time></trkpt>
<trkpt lat="46.22353" lon="7.28296"><ele>472.4</ele><time>2022-05-08T13:56:39Z</time></trkpt>
<trkpt lat="46.22359" lon="7.28291"><ele>477</ele><time>2022-05-08T13:56:41Z</time></trkpt>
<trkpt lat="46.22369" lon="7.28287"><ele>486.8</ele><time>2022-05-08T13:56:45Z</time></trkpt>
<trkpt lat="46.22376" lon="7.28285"><ele>501</ele><time>2022-05-08T13:56:48Z</time></trkpt>
<trkpt lat="46.22394" lon="7.28279"><ele>506.4</ele><time>2022-05-08T13:56:55Z</time></trkpt>
<trkpt lat="46.22394" lon="7.28275"><ele>495.4</ele><time>2022-05-08T13:56:58Z</time></trkpt>
<trkpt lat="46.2241" lon="7.2827"><ele>490.2</ele><time>2022-05-08T13:57:04Z</time></trkpt>
<trkpt lat="46.2242" lon="7.28265"><ele>489.4</ele><time>2022-05-08T13:57:09Z</time></trkpt>
<trkpt lat="46.22423" lon="7.28263"><ele>489</ele><time>2022-05-08T13:57:11Z</time></trkpt>
<trkpt lat="46.22426" lon="7.28263"><ele>488</ele><time>2022-05-08T13:57:13Z</time></trkpt>
<trkpt lat="46.22428" lon="7.28264"><ele>487.8</ele><time>2022-05-08T13:57:14Z</time></trkpt>
<trkpt lat="46.22433" lon="7.28277"><ele>487.8</ele><time>2022-05-08T13:57:19Z</time></trkpt>
<trkpt lat="46.22442" lon="7.28301"><ele>487.6</ele><time>2022-05-08T13:57:28Z</time></trkpt>
<trkpt lat="46.22451" lon="7.28326"><ele>489.6</ele><time>2022-05-08T13:57:37Z</time></trkpt>
<trkpt lat="46.22469" lon="7.28372"><ele>490.2</ele><time>2022-05-08T13:57:56Z</time></trkpt>
<trkpt lat="46.22487" lon="7.28365"><ele>490.2</ele><time>2022-05-08T13:58:05Z</time></trkpt>
<trkpt lat="46.22504" lon="7.28357"><ele>490.4</ele><time>2022-05-08T13:58:11Z</time></trkpt>
<trkpt lat="46.22523" lon="7.28346"><ele>491.6</ele><time>2022-05-08T13:58:17Z</time></trkpt>
<trkpt lat="46.22535" lon="7.28341"><ele>491</ele><time>2022-05-08T13:58:21Z</time></trkpt>
<trkpt lat="46.22541" lon="7.28339"><ele>491.2</ele><time>2022-05-08T13:58:23Z</time></trkpt>
<trkpt lat="46.22557" lon="7.28336"><ele>492.2</ele><time>2022-05-08T13:58:29Z</time></trkpt>
<trkpt lat="46.22562" lon="7.28336"><ele>493.4</ele><time>2022-05-08T13:58:32Z</time></trkpt>
<trkpt lat="46.22587" lon="7.28343"><ele>495</ele><time>2022-05-08T13:58:45Z</time></trkpt>
<trkpt lat="46.22606" lon="7.28348"><ele>494.6</ele><time>2022-05-08T13:58:52Z</time></trkpt>
<trkpt lat="46.22624" lon="7.28352"><ele>494.2</ele><time>2022-05-08T13:59:01Z</time></trkpt>
<trkpt lat="46.22628" lon="7.28352"><ele>494</ele><time>2022-05-08T13:59:03Z</time></trkpt>
<trkpt lat="46.22644" lon="7.28347"><ele>494.6</ele><time>2022-05-08T13:59:10Z</time></trkpt>
<trkpt lat="46.22662" lon="7.28336"><ele>498.2</ele><time>2022-05-08T13:59:18Z</time></trkpt>
<trkpt lat="46.22678" lon="7.28318"><ele>501</ele><time>2022-05-08T13:59:26Z</time></trkpt>
<trkpt lat="46.22693" lon="7.28303"><ele>502.4</ele><time>2022-05-08T13:59:35Z</time></trkpt>
<trkpt lat="46.22695" lon="7.28303"><ele>502.4</ele><time>2022-05-08T13:59:36Z</time></trkpt>
<trkpt lat="46.22701" lon="7.28314"><ele>503.4</ele><time>2022-05-08T13:59:40Z</time></trkpt>
<trkpt lat="46.22704" lon="7.28331"><ele>503.8</ele><time>2022-05-08T13:59:43Z</time></trkpt>
<trkpt lat="46.2271" lon="7.28358"><ele>503.6</ele><time>2022-05-08T13:59:47Z</time></trkpt>
<trkpt lat="46.22716" lon="7.28386"><ele>503</ele><time>2022-05-08T13:59:51Z</time></trkpt>
<trkpt lat="46.22719" lon="7.28398"><ele>502.8</ele><time>2022-05-08T13:59:53Z</time></trkpt>
<trkpt lat="46.22723" lon="7.28413"><ele>502.6</ele><time>2022-05-08T13:59:56Z</time></trkpt>
<trkpt lat="46.22727" lon="7.2844"><ele>503.2</ele><time>2022-05-08T14:00:02Z</time></trkpt>
<trkpt lat="46.2273" lon="7.28463"><ele>505.6</ele><time>2022-05-08T14:00:10Z</time></trkpt>
<trkpt lat="46.22732" lon="7.28479"><ele>507</ele><time>2022-05-08T14:00:15Z</time></trkpt>
<trkpt lat="46.22732" lon="7.28485"><ele>507.2</ele><time>2022-05-08T14:00:17Z</time></trkpt>
<trkpt lat="46.22727" lon="7.28496"><ele>504.8</ele><time>2022-05-08T14:00:22Z</time></trkpt>
<trkpt lat="46.22723" lon="7.28524"><ele>503.2</ele><time>2022-05-08T14:00:27Z</time></trkpt>
<trkpt lat="46.22725" lon="7.28555"><ele>502.4</ele><time>2022-05-08T14:00:31Z</time></trkpt>
<trkpt lat="46.22726" lon="7.28563"><ele>502.4</ele><time>2022-05-08T14:00:32Z</time></trkpt>
<trkpt lat="46.22732" lon="7.28594"><ele>502.6</ele><time>2022-05-08T14:00:36Z</time></trkpt>
<trkpt lat="46.22738" lon="7.28627"><ele>501.8</ele><time>2022-05-08T14:00:40Z</time></trkpt>
<trkpt lat="46.22741" lon="7.2866"><ele>500.6</ele><time>2022-05-08T14:00:44Z</time></trkpt>
<trkpt lat="46.22743" lon="7.28693"><ele>499.8</ele><time>2022-05-08T14:00:48Z</time></trkpt>
<trkpt lat="46.22744" lon="7.28726"><ele>499.6</ele><time>2022-05-08T14:00:52Z</time></trkpt>
<trkpt lat="46.22746" lon="7.28752"><ele>499.6</ele><time>2022-05-08T14:00:56Z</time></trkpt>
<trkpt lat="46.22751" lon="7.28778"><ele>499.4</ele><time>2022-05-08T14:01:01Z</time></trkpt>
<trkpt lat="46.22756" lon="7.28806"><ele>498.4</ele><time>2022-05-08T14:01:06Z</time></trkpt>
<trkpt lat="46.22762" lon="7.28835"><ele>497.8</ele><time>2022-05-08T14:01:11Z</time></trkpt>
<trkpt lat="46.22765" lon="7.28864"><ele>497.6</ele><time>2022-05-08T14:01:16Z</time></trkpt>
<trkpt lat="46.22766" lon="7.28893"><ele>497.8</ele><time>2022-05-08T14:01:21Z</time></trkpt>
<trkpt lat="46.22764" lon="7.28922"><ele>497.4</ele><time>2022-05-08T14:01:26Z</time></trkpt>
<trkpt lat="46.22762" lon="7.28949"><ele>497.4</ele><time>2022-05-08T14:01:30Z</time></trkpt>
<trkpt lat="46.22761" lon="7.28964"><ele>497.4</ele><time>2022-05-08T14:01:32Z</time></trkpt>
<trkpt lat="46.22761" lon="7.28971"><ele>497.4</ele><time>2022-05-08T14:01:33Z</time></trkpt>
<trkpt lat="46.22761" lon="7.28979"><ele>497.4</ele><time>2022-05-08T14:01:34Z</time></trkpt>
<trkpt lat="46.22762" lon="7.28986"><ele>497.4</ele><time>2022-05-08T14:01:35Z</time></trkpt>
<trkpt lat="46.22762" lon="7.28994"><ele>497.4</ele><time>2022-05-08T14:01:36Z</time></trkpt>
<trkpt lat="46.22762" lon="7.29002"><ele>497.6</ele><time>2022-05-08T14:01:37Z</time></trkpt>
<trkpt lat="46.22763" lon="7.29011"><ele>497.6</ele><time>2022-05-08T14:01:38Z</time></trkpt>
<trkpt lat="46.22765" lon="7.29027"><ele>498</ele><time>2022-05-08T14:01:40Z</time></trkpt>
<trkpt lat="46.22766" lon="7.29035"><ele>498.2</ele><time>2022-05-08T14:01:41Z</time></trkpt>
<trkpt lat="46.22767" lon="7.29043"><ele>498.2</ele><time>2022-05-08T14:01:42Z</time></trkpt>
<trkpt lat="46.22774" lon="7.29073"><ele>498.8</ele><time>2022-05-08T14:01:46Z</time></trkpt>
<trkpt lat="46.22782" lon="7.291"><ele>499.4</ele><time>2022-05-08T14:01:50Z</time></trkpt>
<trkpt lat="46.2279" lon="7.29125"><ele>499.6</ele><time>2022-05-08T14:01:54Z</time></trkpt>
<trkpt lat="46.22798" lon="7.29149"><ele>500</ele><time>2022-05-08T14:01:58Z</time></trkpt>
<trkpt lat="46.22805" lon="7.29174"><ele>499.8</ele><time>2022-05-08T14:02:02Z</time></trkpt>
<trkpt lat="46.22813" lon="7.29201"><ele>499.6</ele><time>2022-05-08T14:02:06Z</time></trkpt>
<trkpt lat="46.22821" lon="7.2922"><ele>499.6</ele><time>2022-05-08T14:02:09Z</time></trkpt>
<trkpt lat="46.22834" lon="7.29244"><ele>500</ele><time>2022-05-08T14:02:13Z</time></trkpt>
<trkpt lat="46.22848" lon="7.29267"><ele>500.6</ele><time>2022-05-08T14:02:17Z</time></trkpt>
<trkpt lat="46.22861" lon="7.29291"><ele>500.6</ele><time>2022-05-08T14:02:21Z</time></trkpt>
<trkpt lat="46.22866" lon="7.29319"><ele>500.8</ele><time>2022-05-08T14:02:25Z</time></trkpt>
<trkpt lat="46.22866" lon="7.29326"><ele>500.8</ele><time>2022-05-08T14:02:26Z</time></trkpt>
<trkpt lat="46.22858" lon="7.29353"><ele>500.8</ele><time>2022-05-08T14:02:30Z</time></trkpt>
<trkpt lat="46.22851" lon="7.2938"><ele>500.6</ele><time>2022-05-08T14:02:34Z</time></trkpt>
<trkpt lat="46.22846" lon="7.29409"><ele>500.4</ele><time>2022-05-08T14:02:38Z</time></trkpt>
<trkpt lat="46.22842" lon="7.29438"><ele>500.6</ele><time>2022-05-08T14:02:42Z</time></trkpt>
<trkpt lat="46.22842" lon="7.29445"><ele>500.8</ele><time>2022-05-08T14:02:43Z</time></trkpt>
<trkpt lat="46.22844" lon="7.29472"><ele>500.8</ele><time>2022-05-08T14:02:47Z</time></trkpt>
<trkpt lat="46.22846" lon="7.2949"><ele>500.8</ele><time>2022-05-08T14:02:50Z</time></trkpt>
<trkpt lat="46.22845" lon="7.29508"><ele>500.4</ele><time>2022-05-08T14:02:56Z</time></trkpt>
<trkpt lat="46.22852" lon="7.29527"><ele>500.4</ele><time>2022-05-08T14:03:00Z</time></trkpt>
<trkpt lat="46.22865" lon="7.2955"><ele>501</ele><time>2022-05-08T14:03:05Z</time></trkpt>
<trkpt lat="46.22873" lon="7.29565"><ele>501</ele><time>2022-05-08T14:03:08Z</time></trkpt>
<trkpt lat="46.22875" lon="7.29571"><ele>501.2</ele><time>2022-05-08T14:03:09Z</time></trkpt>
<trkpt lat="46.22882" lon="7.29598"><ele>501.4</ele><time>2022-05-08T14:03:13Z</time></trkpt>
<trkpt lat="46.22887" lon="7.29625"><ele>501.6</ele><time>2022-05-08T14:03:17Z</time></trkpt>
<trkpt lat="46.22889" lon="7.29645"><ele>501.8</ele><time>2022-05-08T14:03:20Z</time></trkpt>
<trkpt lat="46.22891" lon="7.29672"><ele>502.4</ele><time>2022-05-08T14:03:24Z</time></trkpt>
<trkpt lat="46.22895" lon="7.29699"><ele>503.4</ele><time>2022-05-08T14:03:28Z</time></trkpt>
<trkpt lat="46.22901" lon="7.29723"><ele>504.4</ele><time>2022-05-08T14:03:32Z</time></trkpt>
<trkpt lat="46.2291" lon="7.29751"><ele>505.6</ele><time>2022-05-08T14:03:37Z</time></trkpt>
<trkpt lat="46.22918" lon="7.29776"><ele>506.2</ele><time>2022-05-08T14:03:41Z</time></trkpt>
<trkpt lat="46.22926" lon="7.29801"><ele>506.6</ele><time>2022-05-08T14:03:45Z</time></trkpt>
<trkpt lat="46.22929" lon="7.29814"><ele>505.8</ele><time>2022-05-08T14:03:47Z</time></trkpt>
<trkpt lat="46.2293" lon="7.29827"><ele>505</ele><time>2022-05-08T14:03:49Z</time></trkpt>
<trkpt lat="46.2293" lon="7.29834"><ele>504.8</ele><time>2022-05-08T14:03:50Z</time></trkpt>
<trkpt lat="46.22932" lon="7.29854"><ele>504.6</ele><time>2022-05-08T14:03:53Z</time></trkpt>
<trkpt lat="46.22931" lon="7.29881"><ele>504.2</ele><time>2022-05-08T14:03:57Z</time></trkpt>
<trkpt lat="46.22931" lon="7.29896"><ele>504</ele><time>2022-05-08T14:03:59Z</time></trkpt>
<trkpt lat="46.22938" lon="7.29923"><ele>504</ele><time>2022-05-08T14:04:03Z</time></trkpt>
<trkpt lat="46.22947" lon="7.29949"><ele>504.4</ele><time>2022-05-08T14:04:07Z</time></trkpt>
<trkpt lat="46.22956" lon="7.29974"><ele>504.2</ele><time>2022-05-08T14:04:11Z</time></trkpt>
<trkpt lat="46.22964" lon="7.3"><ele>504.6</ele><time>2022-05-08T14:04:15Z</time></trkpt>
<trkpt lat="46.22971" lon="7.30024"><ele>504.6</ele><time>2022-05-08T14:04:19Z</time></trkpt>
<trkpt lat="46.22978" lon="7.30049"><ele>505</ele><time>2022-05-08T14:04:23Z</time></trkpt>
<trkpt lat="46.22987" lon="7.30078"><ele>505.4</ele><time>2022-05-08T14:04:28Z</time></trkpt>
<trkpt lat="46.22995" lon="7.30107"><ele>505.8</ele><time>2022-05-08T14:04:33Z</time></trkpt>
<trkpt lat="46.22999" lon="7.30139"><ele>506.2</ele><time>2022-05-08T14:04:38Z</time></trkpt>
<trkpt lat="46.22999" lon="7.30171"><ele>506.4</ele><time>2022-05-08T14:04:43Z</time></trkpt>
<trkpt lat="46.22998" lon="7.30202"><ele>506.8</ele><time>2022-05-08T14:04:48Z</time></trkpt>
<trkpt lat="46.22999" lon="7.30214"><ele>507</ele><time>2022-05-08T14:04:50Z</time></trkpt>
<trkpt lat="46.22999" lon="7.30245"><ele>507.2</ele><time>2022-05-08T14:04:55Z</time></trkpt>
<trkpt lat="46.23" lon="7.30271"><ele>507.4</ele><time>2022-05-08T14:04:59Z</time></trkpt>
<trkpt lat="46.23" lon="7.30284"><ele>507.6</ele><time>2022-05-08T14:05:01Z</time></trkpt>
<trkpt lat="46.23002" lon="7.30314"><ele>507.8</ele><time>2022-05-08T14:05:06Z</time></trkpt>
<trkpt lat="46.23003" lon="7.30324"><ele>507.6</ele><time>2022-05-08T14:05:08Z</time></trkpt>
<trkpt lat="46.23005" lon="7.30355"><ele>508.4</ele><time>2022-05-08T14:05:14Z</time></trkpt>
<trkpt lat="46.23013" lon="7.30385"><ele>509.4</ele><time>2022-05-08T14:05:19Z</time></trkpt>
<trkpt lat="46.23014" lon="7.30391"><ele>509.8</ele><time>2022-05-08T14:05:20Z</time></trkpt>
<trkpt lat="46.23018" lon="7.30419"><ele>511.2</ele><time>2022-05-08T14:05:24Z</time></trkpt>
<trkpt lat="46.23024" lon="7.30445"><ele>513.8</ele><time>2022-05-08T14:05:28Z</time></trkpt>
<trkpt lat="46.23032" lon="7.3047"><ele>515.6</ele><time>2022-05-08T14:05:32Z</time></trkpt>
<trkpt lat="46.23035" lon="7.30483"><ele>517.2</ele><time>2022-05-08T14:05:34Z</time></trkpt>
<trkpt lat="46.23041" lon="7.30507"><ele>518.2</ele><time>2022-05-08T14:05:38Z</time></trkpt>
<trkpt lat="46.23048" lon="7.30537"><ele>518.4</ele><time>2022-05-08T14:05:43Z</time></trkpt>
<trkpt lat="46.23056" lon="7.30567"><ele>518.4</ele><time>2022-05-08T14:05:48Z</time></trkpt>
<trkpt lat="46.23065" lon="7.30596"><ele>520.2</ele><time>2022-05-08T14:05:53Z</time></trkpt>
<trkpt lat="46.23072" lon="7.30625"><ele>519.6</ele><time>2022-05-08T14:05:58Z</time></trkpt>
<trkpt lat="46.23078" lon="7.30655"><ele>519</ele><time>2022-05-08T14:06:03Z</time></trkpt>
<trkpt lat="46.23083" lon="7.30685"><ele>518.8</ele><time>2022-05-08T14:06:08Z</time></trkpt>
<trkpt lat="46.23088" lon="7.30715"><ele>519.6</ele><time>2022-05-08T14:06:13Z</time></trkpt>
<trkpt lat="46.23095" lon="7.30745"><ele>521</ele><time>2022-05-08T14:06:18Z</time></trkpt>
<trkpt lat="46.23103" lon="7.30772"><ele>521.6</ele><time>2022-05-08T14:06:23Z</time></trkpt>
<trkpt lat="46.23114" lon="7.30799"><ele>521.8</ele><time>2022-05-08T14:06:28Z</time></trkpt>
<trkpt lat="46.23118" lon="7.3081"><ele>522</ele><time>2022-05-08T14:06:30Z</time></trkpt>
<trkpt lat="46.2313" lon="7.30835"><ele>523</ele><time>2022-05-08T14:06:35Z</time></trkpt>
<trkpt lat="46.23143" lon="7.3086"><ele>523.8</ele><time>2022-05-08T14:06:40Z</time></trkpt>
<trkpt lat="46.23149" lon="7.30869"><ele>523.4</ele><time>2022-05-08T14:06:42Z</time></trkpt>
<trkpt lat="46.23153" lon="7.30881"><ele>524.6</ele><time>2022-05-08T14:06:44Z</time></trkpt>
<trkpt lat="46.23153" lon="7.30899"><ele>525.4</ele><time>2022-05-08T14:06:47Z</time></trkpt>
<trkpt lat="46.2316" lon="7.30921"><ele>526.2</ele><time>2022-05-08T14:06:51Z</time></trkpt>
<trkpt lat="46.23165" lon="7.30972"><ele>526.4</ele><time>2022-05-08T14:07:00Z</time></trkpt>
<trkpt lat="46.23168" lon="7.31002"><ele>527.2</ele><time>2022-05-08T14:07:05Z</time></trkpt>
<trkpt lat="46.23174" lon="7.31018"><ele>526.8</ele><time>2022-05-08T14:07:08Z</time></trkpt>
<trkpt lat="46.23186" lon="7.31043"><ele>527.4</ele><time>2022-05-08T14:07:13Z</time></trkpt>
<trkpt lat="46.23196" lon="7.31069"><ele>527.6</ele><time>2022-05-08T14:07:18Z</time></trkpt>
<trkpt lat="46.23206" lon="7.31093"><ele>527.4</ele><time>2022-05-08T14:07:23Z</time></trkpt>
<trkpt lat="46.23214" lon="7.31113"><ele>526.8</ele><time>2022-05-08T14:07:28Z</time></trkpt>
<trkpt lat="46.23231" lon="7.31144"><ele>525.8</ele><time>2022-05-08T14:07:35Z</time></trkpt>
<trkpt lat="46.23237" lon="7.31158"><ele>525.2</ele><time>2022-05-08T14:07:37Z</time></trkpt>
<trkpt lat="46.23246" lon="7.31187"><ele>524</ele><time>2022-05-08T14:07:41Z</time></trkpt>
<trkpt lat="46.23252" lon="7.31213"><ele>523.2</ele><time>2022-05-08T14:07:45Z</time></trkpt>
<trkpt lat="46.23257" lon="7.3123"><ele>522.2</ele><time>2022-05-08T14:07:48Z</time></trkpt>
<trkpt lat="46.23262" lon="7.31245"><ele>520.8</ele><time>2022-05-08T14:07:53Z</time></trkpt>
<trkpt lat="46.23276" lon="7.31245"><ele>520.2</ele><time>2022-05-08T14:07:58Z</time></trkpt>
<trkpt lat="46.23293" lon="7.31237"><ele>520.2</ele><time>2022-05-08T14:08:03Z</time></trkpt>
<trkpt lat="46.23311" lon="7.3123"><ele>521.2</ele><time>2022-05-08T14:08:08Z</time></trkpt>
<trkpt lat="46.23348" lon="7.31214"><ele>521.2</ele><time>2022-05-08T14:08:18Z</time></trkpt>
<trkpt lat="46.23365" lon="7.31205"><ele>521.2</ele><time>2022-05-08T14:08:23Z</time></trkpt>
<trkpt lat="46.23382" lon="7.31198"><ele>521.6</ele><time>2022-05-08T14:08:28Z</time></trkpt>
<trkpt lat="46.23399" lon="7.31189"><ele>522.2</ele><time>2022-05-08T14:08:33Z</time></trkpt>
<trkpt lat="46.23417" lon="7.31182"><ele>522.6</ele><time>2022-05-08T14:08:38Z</time></trkpt>
<trkpt lat="46.23434" lon="7.31174"><ele>523</ele><time>2022-05-08T14:08:43Z</time></trkpt>
<trkpt lat="46.23452" lon="7.3117"><ele>525.6</ele><time>2022-05-08T14:08:50Z</time></trkpt>
<trkpt lat="46.23469" lon="7.31179"><ele>528.4</ele><time>2022-05-08T14:08:59Z</time></trkpt>
<trkpt lat="46.2348" lon="7.31194"><ele>531</ele><time>2022-05-08T14:09:08Z</time></trkpt>
<trkpt lat="46.23493" lon="7.31211"><ele>534</ele><time>2022-05-08T14:09:18Z</time></trkpt>
<trkpt lat="46.23501" lon="7.31221"><ele>536.4</ele><time>2022-05-08T14:09:25Z</time></trkpt>
<trkpt lat="46.23516" lon="7.31238"><ele>539.4</ele><time>2022-05-08T14:09:37Z</time></trkpt>
<trkpt lat="46.23532" lon="7.31253"><ele>542</ele><time>2022-05-08T14:09:49Z</time></trkpt>
<trkpt lat="46.23548" lon="7.31266"><ele>543.2</ele><time>2022-05-08T14:10:01Z</time></trkpt>
<trkpt lat="46.23565" lon="7.31279"><ele>545.8</ele><time>2022-05-08T14:10:13Z</time></trkpt>
<trkpt lat="46.23588" lon="7.31296"><ele>550.2</ele><time>2022-05-08T14:10:29Z</time></trkpt>
<trkpt lat="46.23604" lon="7.31311"><ele>552.8</ele><time>2022-05-08T14:10:40Z</time></trkpt>
<trkpt lat="46.23619" lon="7.31325"><ele>556</ele><time>2022-05-08T14:10:51Z</time></trkpt>
<trkpt lat="46.23635" lon="7.31338"><ele>559</ele><time>2022-05-08T14:11:02Z</time></trkpt>
<trkpt lat="46.2365" lon="7.31352"><ele>560.4</ele><time>2022-05-08T14:11:13Z</time></trkpt>
<trkpt lat="46.23666" lon="7.31368"><ele>562.2</ele><time>2022-05-08T14:11:25Z</time></trkpt>
<trkpt lat="46.23682" lon="7.31383"><ele>564.8</ele><time>2022-05-08T14:11:37Z</time></trkpt>
<trkpt lat="46.23686" lon="7.31388"><ele>566</ele><time>2022-05-08T14:11:41Z</time></trkpt>
<trkpt lat="46.23707" lon="7.314"><ele>568.4</ele><time>2022-05-08T14:11:55Z</time></trkpt>
<trkpt lat="46.23725" lon="7.31405"><ele>569.4</ele><time>2022-05-08T14:12:07Z</time></trkpt>
<trkpt lat="46.23744" lon="7.31403"><ele>571.4</ele><time>2022-05-08T14:12:18Z</time></trkpt>
<trkpt lat="46.23763" lon="7.31404"><ele>569.4</ele><time>2022-05-08T14:12:29Z</time></trkpt>
<trkpt lat="46.23783" lon="7.31406"><ele>568.6</ele><time>2022-05-08T14:12:39Z</time></trkpt>
<trkpt lat="46.23802" lon="7.31408"><ele>567.4</ele><time>2022-05-08T14:12:50Z</time></trkpt>
<trkpt lat="46.23821" lon="7.31413"><ele>567.6</ele><time>2022-05-08T14:13:01Z</time></trkpt>
<trkpt lat="46.2384" lon="7.31417"><ele>570.2</ele><time>2022-05-08T14:13:12Z</time></trkpt>
<trkpt lat="46.23868" lon="7.31414"><ele>571.8</ele><time>2022-05-08T14:13:27Z</time></trkpt>
<trkpt lat="46.23887" lon="7.31409"><ele>573.4</ele><time>2022-05-08T14:13:37Z</time></trkpt>
<trkpt lat="46.23907" lon="7.31407"><ele>574.6</ele><time>2022-05-08T14:13:47Z</time></trkpt>
<trkpt lat="46.23925" lon="7.31415"><ele>578</ele><time>2022-05-08T14:13:58Z</time></trkpt>
<trkpt lat="46.23949" lon="7.31433"><ele>580.2</ele><time>2022-05-08T14:14:12Z</time></trkpt>
<trkpt lat="46.23967" lon="7.31445"><ele>581.8</ele><time>2022-05-08T14:14:23Z</time></trkpt>
<trkpt lat="46.23984" lon="7.31454"><ele>583.2</ele><time>2022-05-08T14:14:33Z</time></trkpt>
<trkpt lat="46.24002" lon="7.3146"><ele>584</ele><time>2022-05-08T14:14:43Z</time></trkpt>
<trkpt lat="46.2402" lon="7.31466"><ele>585.6</ele><time>2022-05-08T14:14:53Z</time></trkpt>
<trkpt lat="46.24037" lon="7.31478"><ele>587.4</ele><time>2022-05-08T14:15:04Z</time></trkpt>
<trkpt lat="46.24035" lon="7.31505"><ele>589.6</ele><time>2022-05-08T14:15:16Z</time></trkpt>
<trkpt lat="46.24029" lon="7.31514"><ele>590.4</ele><time>2022-05-08T14:15:22Z</time></trkpt>
<trkpt lat="46.24013" lon="7.31528"><ele>591.4</ele><time>2022-05-08T14:15:34Z</time></trkpt>
<trkpt lat="46.23997" lon="7.31542"><ele>593.2</ele><time>2022-05-08T14:15:47Z</time></trkpt>
<trkpt lat="46.23983" lon="7.31557"><ele>595.2</ele><time>2022-05-08T14:16:00Z</time></trkpt>
<trkpt lat="46.23977" lon="7.31567"><ele>596.4</ele><time>2022-05-08T14:16:06Z</time></trkpt>
<trkpt lat="46.23962" lon="7.31595"><ele>598.6</ele><time>2022-05-08T14:16:22Z</time></trkpt>
<trkpt lat="46.23961" lon="7.31619"><ele>600.4</ele><time>2022-05-08T14:16:34Z</time></trkpt>
<trkpt lat="46.2398" lon="7.31621"><ele>602.4</ele><time>2022-05-08T14:16:46Z</time></trkpt>
<trkpt lat="46.23997" lon="7.31632"><ele>602.8</ele><time>2022-05-08T14:16:58Z</time></trkpt>
<trkpt lat="46.24014" lon="7.31643"><ele>603.8</ele><time>2022-05-08T14:17:10Z</time></trkpt>
<trkpt lat="46.24032" lon="7.31646"><ele>606.6</ele><time>2022-05-08T14:17:21Z</time></trkpt>
<trkpt lat="46.24056" lon="7.31653"><ele>610.8</ele><time>2022-05-08T14:17:36Z</time></trkpt>
<trkpt lat="46.24065" lon="7.31659"><ele>612</ele><time>2022-05-08T14:17:42Z</time></trkpt>
<trkpt lat="46.24084" lon="7.31662"><ele>613.8</ele><time>2022-05-08T14:17:55Z</time></trkpt>
<trkpt lat="46.241" lon="7.31648"><ele>616.2</ele><time>2022-05-08T14:18:07Z</time></trkpt>
<trkpt lat="46.24104" lon="7.31645"><ele>616.8</ele><time>2022-05-08T14:18:10Z</time></trkpt>
<trkpt lat="46.24122" lon="7.31644"><ele>619</ele><time>2022-05-08T14:18:22Z</time></trkpt>
<trkpt lat="46.24139" lon="7.31654"><ele>621.2</ele><time>2022-05-08T14:18:35Z</time></trkpt>
<trkpt lat="46.24154" lon="7.31663"><ele>622.6</ele><time>2022-05-08T14:18:46Z</time></trkpt>
<trkpt lat="46.24166" lon="7.31684"><ele>625</ele><time>2022-05-08T14:18:59Z</time></trkpt>
<trkpt lat="46.24164" lon="7.31694"><ele>625.6</ele><time>2022-05-08T14:19:03Z</time></trkpt>
<trkpt lat="46.24148" lon="7.31709"><ele>627.6</ele><time>2022-05-08T14:19:15Z</time></trkpt>
<trkpt lat="46.24141" lon="7.31731"><ele>629</ele><time>2022-05-08T14:19:27Z</time></trkpt>
<trkpt lat="46.24148" lon="7.31757"><ele>631.4</ele><time>2022-05-08T14:19:40Z</time></trkpt>
<trkpt lat="46.24153" lon="7.31768"><ele>632.4</ele><time>2022-05-08T14:19:46Z</time></trkpt>
<trkpt lat="46.24159" lon="7.31777"><ele>633.4</ele><time>2022-05-08T14:19:52Z</time></trkpt>
<trkpt lat="46.24183" lon="7.31785"><ele>636</ele><time>2022-05-08T14:20:08Z</time></trkpt>
<trkpt lat="46.24202" lon="7.31786"><ele>639.4</ele><time>2022-05-08T14:20:21Z</time></trkpt>
<trkpt lat="46.2422" lon="7.31792"><ele>639.8</ele><time>2022-05-08T14:20:33Z</time></trkpt>
<trkpt lat="46.24238" lon="7.31801"><ele>641.4</ele><time>2022-05-08T14:20:45Z</time></trkpt>
<trkpt lat="46.24255" lon="7.31808"><ele>644.8</ele><time>2022-05-08T14:20:57Z</time></trkpt>
<trkpt lat="46.24274" lon="7.31815"><ele>648.2</ele><time>2022-05-08T14:21:09Z</time></trkpt>
<trkpt lat="46.24292" lon="7.31824"><ele>651</ele><time>2022-05-08T14:21:22Z</time></trkpt>
<trkpt lat="46.24302" lon="7.31829"><ele>652.8</ele><time>2022-05-08T14:21:28Z</time></trkpt>
<trkpt lat="46.24314" lon="7.31841"><ele>654.8</ele><time>2022-05-08T14:21:37Z</time></trkpt>
<trkpt lat="46.24323" lon="7.31852"><ele>656.4</ele><time>2022-05-08T14:21:44Z</time></trkpt>
<trkpt lat="46.2434" lon="7.3186"><ele>658.2</ele><time>2022-05-08T14:21:54Z</time></trkpt>
<trkpt lat="46.24358" lon="7.31852"><ele>659.2</ele><time>2022-05-08T14:22:04Z</time></trkpt>
<trkpt lat="46.24374" lon="7.3184"><ele>659.8</ele><time>2022-05-08T14:22:14Z</time></trkpt>
<trkpt lat="46.2439" lon="7.31824"><ele>661</ele><time>2022-05-08T14:22:25Z</time></trkpt>
<trkpt lat="46.24412" lon="7.31803"><ele>663.8</ele><time>2022-05-08T14:22:40Z</time></trkpt>
<trkpt lat="46.24426" lon="7.31785"><ele>665.4</ele><time>2022-05-08T14:22:51Z</time></trkpt>
<trkpt lat="46.2443" lon="7.31759"><ele>667.6</ele><time>2022-05-08T14:23:02Z</time></trkpt>
<trkpt lat="46.24427" lon="7.31731"><ele>669.4</ele><time>2022-05-08T14:23:13Z</time></trkpt>
<trkpt lat="46.24422" lon="7.31704"><ele>671.8</ele><time>2022-05-08T14:23:24Z</time></trkpt>
<trkpt lat="46.24416" lon="7.3168"><ele>673.4</ele><time>2022-05-08T14:23:34Z</time></trkpt>
<trkpt lat="46.2441" lon="7.31654"><ele>675.6</ele><time>2022-05-08T14:23:45Z</time></trkpt>
<trkpt lat="46.24405" lon="7.31618"><ele>678.6</ele><time>2022-05-08T14:24:00Z</time></trkpt>
<trkpt lat="46.24402" lon="7.3159"><ele>680.8</ele><time>2022-05-08T14:24:11Z</time></trkpt>
<trkpt lat="46.24398" lon="7.31563"><ele>682</ele><time>2022-05-08T14:24:22Z</time></trkpt>
<trkpt lat="46.24393" lon="7.31537"><ele>684</ele><time>2022-05-08T14:24:33Z</time></trkpt>
<trkpt lat="46.24394" lon="7.31511"><ele>686</ele><time>2022-05-08T14:24:44Z</time></trkpt>
<trkpt lat="46.24408" lon="7.31474"><ele>689.6</ele><time>2022-05-08T14:25:02Z</time></trkpt>
<trkpt lat="46.24411" lon="7.31448"><ele>691.8</ele><time>2022-05-08T14:25:14Z</time></trkpt>
<trkpt lat="46.24407" lon="7.31423"><ele>693.8</ele><time>2022-05-08T14:25:25Z</time></trkpt>
<trkpt lat="46.24404" lon="7.31397"><ele>695.6</ele><time>2022-05-08T14:25:36Z</time></trkpt>
<trkpt lat="46.24404" lon="7.3138"><ele>697</ele><time>2022-05-08T14:25:43Z</time></trkpt>
<trkpt lat="46.24408" lon="7.31354"><ele>699</ele><time>2022-05-08T14:25:54Z</time></trkpt>
<trkpt lat="46.24414" lon="7.31316"><ele>702.2</ele><time>2022-05-08T14:26:10Z</time></trkpt>
<trkpt lat="46.24418" lon="7.31289"><ele>704.4</ele><time>2022-05-08T14:26:21Z</time></trkpt>
<trkpt lat="46.24431" lon="7.31272"><ele>706.6</ele><time>2022-05-08T14:26:31Z</time></trkpt>
<trkpt lat="46.24444" lon="7.31269"><ele>707.6</ele><time>2022-05-08T14:26:38Z</time></trkpt>
<trkpt lat="46.24463" lon="7.31264"><ele>709.4</ele><time>2022-05-08T14:26:49Z</time></trkpt>
<trkpt lat="46.24479" lon="7.31265"><ele>711</ele><time>2022-05-08T14:26:58Z</time></trkpt>
<trkpt lat="46.24475" lon="7.31283"><ele>712.6</ele><time>2022-05-08T14:27:07Z</time></trkpt>
<trkpt lat="46.2446" lon="7.3131"><ele>714.2</ele><time>2022-05-08T14:27:22Z</time></trkpt>
<trkpt lat="46.24464" lon="7.31336"><ele>716.4</ele><time>2022-05-08T14:27:33Z</time></trkpt>
<trkpt lat="46.2447" lon="7.31355"><ele>718.6</ele><time>2022-05-08T14:27:42Z</time></trkpt>
<trkpt lat="46.24474" lon="7.31365"><ele>719.8</ele><time>2022-05-08T14:27:47Z</time></trkpt>
<trkpt lat="46.24475" lon="7.31369"><ele>720.2</ele><time>2022-05-08T14:27:49Z</time></trkpt>
<trkpt lat="46.24479" lon="7.31387"><ele>722</ele><time>2022-05-08T14:27:58Z</time></trkpt>
<trkpt lat="46.24486" lon="7.31411"><ele>724.6</ele><time>2022-05-08T14:28:11Z</time></trkpt>
<trkpt lat="46.24492" lon="7.31436"><ele>727.4</ele><time>2022-05-08T14:28:24Z</time></trkpt>
<trkpt lat="46.24498" lon="7.31453"><ele>729.6</ele><time>2022-05-08T14:28:33Z</time></trkpt>
<trkpt lat="46.24503" lon="7.31474"><ele>732</ele><time>2022-05-08T14:28:44Z</time></trkpt>
<trkpt lat="46.24509" lon="7.31499"><ele>734.2</ele><time>2022-05-08T14:28:57Z</time></trkpt>
<trkpt lat="46.24516" lon="7.31525"><ele>725.2</ele><time>2022-05-08T14:29:14Z</time></trkpt>
<trkpt lat="46.24523" lon="7.31549"><ele>723.8</ele><time>2022-05-08T14:29:27Z</time></trkpt>
<trkpt lat="46.24529" lon="7.31575"><ele>724.4</ele><time>2022-05-08T14:29:41Z</time></trkpt>
<trkpt lat="46.24537" lon="7.31613"><ele>726.2</ele><time>2022-05-08T14:30:00Z</time></trkpt>
<trkpt lat="46.24541" lon="7.3164"><ele>727.4</ele><time>2022-05-08T14:30:13Z</time></trkpt>
<trkpt lat="46.24542" lon="7.31652"><ele>728.2</ele><time>2022-05-08T14:30:19Z</time></trkpt>
<trkpt lat="46.24546" lon="7.31678"><ele>729.2</ele><time>2022-05-08T14:30:31Z</time></trkpt>
<trkpt lat="46.24548" lon="7.31704"><ele>730.2</ele><time>2022-05-08T14:30:43Z</time></trkpt>
<trkpt lat="46.24551" lon="7.31731"><ele>732</ele><time>2022-05-08T14:30:56Z</time></trkpt>
<trkpt lat="46.24552" lon="7.31758"><ele>733.4</ele><time>2022-05-08T14:31:09Z</time></trkpt>
<trkpt lat="46.24567" lon="7.31757"><ele>735.2</ele><time>2022-05-08T14:31:21Z</time></trkpt>
<trkpt lat="46.24566" lon="7.3174"><ele>736.6</ele><time>2022-05-08T14:31:27Z</time></trkpt>
<trkpt lat="46.24568" lon="7.31712"><ele>738.6</ele><time>2022-05-08T14:31:35Z</time></trkpt>
<trkpt lat="46.24569" lon="7.31702"><ele>739.4</ele><time>2022-05-08T14:31:38Z</time></trkpt>
<trkpt lat="46.24574" lon="7.31676"><ele>741.2</ele><time>2022-05-08T14:31:45Z</time></trkpt>
<trkpt lat="46.24579" lon="7.31651"><ele>743.2</ele><time>2022-05-08T14:31:51Z</time></trkpt>
<trkpt lat="46.2459" lon="7.31611"><ele>746.4</ele><time>2022-05-08T14:32:02Z</time></trkpt>
<trkpt lat="46.24595" lon="7.31585"><ele>748.2</ele><time>2022-05-08T14:32:14Z</time></trkpt>
<trkpt lat="46.24599" lon="7.31559"><ele>750.4</ele><time>2022-05-08T14:32:25Z</time></trkpt>
<trkpt lat="46.24602" lon="7.31531"><ele>752.4</ele><time>2022-05-08T14:32:37Z</time></trkpt>
<trkpt lat="46.24606" lon="7.31504"><ele>754.4</ele><time>2022-05-08T14:32:50Z</time></trkpt>
<trkpt lat="46.2461" lon="7.31477"><ele>756.6</ele><time>2022-05-08T14:33:03Z</time></trkpt>
<trkpt lat="46.24614" lon="7.31461"><ele>757.6</ele><time>2022-05-08T14:33:11Z</time></trkpt>
<trkpt lat="46.2462" lon="7.31437"><ele>759.4</ele><time>2022-05-08T14:33:20Z</time></trkpt>
<trkpt lat="46.24632" lon="7.31414"><ele>761.6</ele><time>2022-05-08T14:33:29Z</time></trkpt>
<trkpt lat="46.24645" lon="7.31392"><ele>763.6</ele><time>2022-05-08T14:33:38Z</time></trkpt>
<trkpt lat="46.2465" lon="7.31385"><ele>764.2</ele><time>2022-05-08T14:33:41Z</time></trkpt>
<trkpt lat="46.24663" lon="7.31364"><ele>766.2</ele><time>2022-05-08T14:33:50Z</time></trkpt>
<trkpt lat="46.24679" lon="7.31349"><ele>768.6</ele><time>2022-05-08T14:34:00Z</time></trkpt>
<trkpt lat="46.24697" lon="7.31354"><ele>769.4</ele><time>2022-05-08T14:34:12Z</time></trkpt>
<trkpt lat="46.24719" lon="7.3137"><ele>771.4</ele><time>2022-05-08T14:34:30Z</time></trkpt>
<trkpt lat="46.24732" lon="7.31383"><ele>773.2</ele><time>2022-05-08T14:34:41Z</time></trkpt>
<trkpt lat="46.24737" lon="7.31403"><ele>774.8</ele><time>2022-05-08T14:34:53Z</time></trkpt>
<trkpt lat="46.24721" lon="7.31414"><ele>776.4</ele><time>2022-05-08T14:35:06Z</time></trkpt>
<trkpt lat="46.24704" lon="7.31424"><ele>778.4</ele><time>2022-05-08T14:35:18Z</time></trkpt>
<trkpt lat="46.24697" lon="7.31449"><ele>779</ele><time>2022-05-08T14:35:30Z</time></trkpt>
<trkpt lat="46.24687" lon="7.31485"><ele>781</ele><time>2022-05-08T14:35:47Z</time></trkpt>
<trkpt lat="46.24684" lon="7.31499"><ele>782.2</ele><time>2022-05-08T14:35:53Z</time></trkpt>
<trkpt lat="46.24682" lon="7.31526"><ele>784.2</ele><time>2022-05-08T14:36:04Z</time></trkpt>
<trkpt lat="46.24687" lon="7.31552"><ele>785.8</ele><time>2022-05-08T14:36:16Z</time></trkpt>
<trkpt lat="46.24692" lon="7.31568"><ele>786</ele><time>2022-05-08T14:36:24Z</time></trkpt>
<trkpt lat="46.24699" lon="7.31593"><ele>787.8</ele><time>2022-05-08T14:36:38Z</time></trkpt>
<trkpt lat="46.24705" lon="7.31619"><ele>789.4</ele><time>2022-05-08T14:36:52Z</time></trkpt>
<trkpt lat="46.24712" lon="7.31645"><ele>790.6</ele><time>2022-05-08T14:37:05Z</time></trkpt>
<trkpt lat="46.24719" lon="7.31669"><ele>792.2</ele><time>2022-05-08T14:37:18Z</time></trkpt>
<trkpt lat="46.24724" lon="7.31696"><ele>792.4</ele><time>2022-05-08T14:37:32Z</time></trkpt>
<trkpt lat="46.24727" lon="7.31723"><ele>792.4</ele><time>2022-05-08T14:37:45Z</time></trkpt>
<trkpt lat="46.24727" lon="7.31738"><ele>793</ele><time>2022-05-08T14:37:52Z</time></trkpt>
<trkpt lat="46.24728" lon="7.31766"><ele>795</ele><time>2022-05-08T14:38:05Z</time></trkpt>
<trkpt lat="46.2473" lon="7.31784"><ele>796.6</ele><time>2022-05-08T14:38:14Z</time></trkpt>
<trkpt lat="46.2473" lon="7.3179"><ele>797</ele><time>2022-05-08T14:38:17Z</time></trkpt>
<trkpt lat="46.24737" lon="7.31817"><ele>800</ele><time>2022-05-08T14:38:30Z</time></trkpt>
<trkpt lat="46.24748" lon="7.31838"><ele>803</ele><time>2022-05-08T14:38:42Z</time></trkpt>
<trkpt lat="46.2476" lon="7.31859"><ele>806</ele><time>2022-05-08T14:38:54Z</time></trkpt>
<trkpt lat="46.24769" lon="7.31881"><ele>807</ele><time>2022-05-08T14:39:06Z</time></trkpt>
<trkpt lat="46.24763" lon="7.31906"><ele>810</ele><time>2022-05-08T14:39:19Z</time></trkpt>
<trkpt lat="46.24749" lon="7.31937"><ele>813.4</ele><time>2022-05-08T14:39:36Z</time></trkpt>
<trkpt lat="46.2475" lon="7.31963"><ele>814.8</ele><time>2022-05-08T14:39:48Z</time></trkpt>
<trkpt lat="46.24757" lon="7.31987"><ele>815.8</ele><time>2022-05-08T14:40:00Z</time></trkpt>
<trkpt lat="46.24765" lon="7.32012"><ele>817</ele><time>2022-05-08T14:40:12Z</time></trkpt>
<trkpt lat="46.24775" lon="7.32035"><ele>818.2</ele><time>2022-05-08T14:40:24Z</time></trkpt>
<trkpt lat="46.24788" lon="7.32066"><ele>820.6</ele><time>2022-05-08T14:40:40Z</time></trkpt>
<trkpt lat="46.24793" lon="7.32083"><ele>821.8</ele><time>2022-05-08T14:40:48Z</time></trkpt>
<trkpt lat="46.24804" lon="7.32102"><ele>823.2</ele><time>2022-05-08T14:41:00Z</time></trkpt>
<trkpt lat="46.24808" lon="7.32099"><ele>823.6</ele><time>2022-05-08T14:41:03Z</time></trkpt>
<trkpt lat="46.24802" lon="7.32093"><ele>823.6</ele><time>2022-05-08T14:41:09Z</time></trkpt>
<trkpt lat="46.24801" lon="7.32093"><ele>823.6</ele><time>2022-05-08T14:41:10Z</time></trkpt>
<trkpt lat="46.24799" lon="7.3209"><ele>823.8</ele><time>2022-05-08T14:41:15Z</time></trkpt>
<trkpt lat="46.24799" lon="7.3209"><ele>823.6</ele><time>2022-05-08T14:41:22Z</time></trkpt>
<trkpt lat="46.24798" lon="7.3209"><ele>823.6</ele><time>2022-05-08T14:41:36Z</time></trkpt>
<trkpt lat="46.24799" lon="7.3209"><ele>823.6</ele><time>2022-05-08T14:41:45Z</time></trkpt>
<trkpt lat="46.24799" lon="7.3209"><ele>823.6</ele><time>2022-05-08T14:41:55Z</time></trkpt>
<trkpt lat="46.24799" lon="7.3209"><ele>823.6</ele><time>2022-05-08T14:41:58Z</time></trkpt>
<trkpt lat="46.248" lon="7.3209"><ele>824</ele><time>2022-05-08T14:42:06Z</time></trkpt>
<trkpt lat="46.248" lon="7.32091"><ele>824.6</ele><time>2022-05-08T14:42:18Z</time></trkpt>
<trkpt lat="46.248" lon="7.32089"><ele>826</ele><time>2022-05-08T14:42:49Z</time></trkpt>
<trkpt lat="46.24805" lon="7.32091"><ele>824.6</ele><time>2022-05-08T14:43:36Z</time></trkpt>
<trkpt lat="46.24806" lon="7.32089"><ele>824.6</ele><time>2022-05-08T14:43:37Z</time></trkpt>
<trkpt lat="46.24804" lon="7.32061"><ele>826.2</ele><time>2022-05-08T14:43:48Z</time></trkpt>
<trkpt lat="46.24804" lon="7.32051"><ele>827.4</ele><time>2022-05-08T14:43:52Z</time></trkpt>
<trkpt lat="46.24804" lon="7.32039"><ele>828.6</ele><time>2022-05-08T14:43:57Z</time></trkpt>
<trkpt lat="46.24803" lon="7.32034"><ele>829</ele><time>2022-05-08T14:43:59Z</time></trkpt>
<trkpt lat="46.24803" lon="7.32017"><ele>830</ele><time>2022-05-08T14:44:06Z</time></trkpt>
<trkpt lat="46.24802" lon="7.31996"><ele>832</ele><time>2022-05-08T14:44:15Z</time></trkpt>
<trkpt lat="46.24803" lon="7.31988"><ele>832.6</ele><time>2022-05-08T14:44:18Z</time></trkpt>
<trkpt lat="46.24806" lon="7.31973"><ele>833.2</ele><time>2022-05-08T14:44:23Z</time></trkpt>
<trkpt lat="46.24818" lon="7.31953"><ele>832</ele><time>2022-05-08T14:44:29Z</time></trkpt>
<trkpt lat="46.24832" lon="7.31933"><ele>830.6</ele><time>2022-05-08T14:44:33Z</time></trkpt>
<trkpt lat="46.24839" lon="7.31921"><ele>829.6</ele><time>2022-05-08T14:44:35Z</time></trkpt>
<trkpt lat="46.24837" lon="7.31892"><ele>828.2</ele><time>2022-05-08T14:44:38Z</time></trkpt>
<trkpt lat="46.24835" lon="7.31882"><ele>828.2</ele><time>2022-05-08T14:44:39Z</time></trkpt>
<trkpt lat="46.24831" lon="7.31862"><ele>827.2</ele><time>2022-05-08T14:44:41Z</time></trkpt>
<trkpt lat="46.24838" lon="7.31834"><ele>826.8</ele><time>2022-05-08T14:44:45Z</time></trkpt>
<trkpt lat="46.24848" lon="7.31819"><ele>825.2</ele><time>2022-05-08T14:44:51Z</time></trkpt>
<trkpt lat="46.24849" lon="7.31813"><ele>825.2</ele><time>2022-05-08T14:44:53Z</time></trkpt>
<trkpt lat="46.2485" lon="7.31805"><ele>824.8</ele><time>2022-05-08T14:44:55Z</time></trkpt>
<trkpt lat="46.24855" lon="7.31789"><ele>826.6</ele><time>2022-05-08T14:45:00Z</time></trkpt>
<trkpt lat="46.24863" lon="7.31749"><ele>829</ele><time>2022-05-08T14:45:11Z</time></trkpt>
<trkpt lat="46.24867" lon="7.31723"><ele>833.2</ele><time>2022-05-08T14:45:19Z</time></trkpt>
<trkpt lat="46.24869" lon="7.31717"><ele>834</ele><time>2022-05-08T14:45:21Z</time></trkpt>
<trkpt lat="46.24872" lon="7.31703"><ele>834.4</ele><time>2022-05-08T14:45:25Z</time></trkpt>
<trkpt lat="46.24875" lon="7.31687"><ele>835.6</ele><time>2022-05-08T14:45:30Z</time></trkpt>
<trkpt lat="46.24885" lon="7.31664"><ele>837.6</ele><time>2022-05-08T14:45:38Z</time></trkpt>
<trkpt lat="46.24897" lon="7.31643"><ele>839.8</ele><time>2022-05-08T14:45:46Z</time></trkpt>
<trkpt lat="46.249" lon="7.3164"><ele>839.8</ele><time>2022-05-08T14:45:48Z</time></trkpt>
<trkpt lat="46.24916" lon="7.31625"><ele>838.6</ele><time>2022-05-08T14:45:56Z</time></trkpt>
<trkpt lat="46.24932" lon="7.31608"><ele>837.2</ele><time>2022-05-08T14:46:01Z</time></trkpt>
<trkpt lat="46.24953" lon="7.31589"><ele>834.2</ele><time>2022-05-08T14:46:05Z</time></trkpt>
<trkpt lat="46.2496" lon="7.31585"><ele>833.2</ele><time>2022-05-08T14:46:06Z</time></trkpt>
<trkpt lat="46.24987" lon="7.31578"><ele>830.2</ele><time>2022-05-08T14:46:09Z</time></trkpt>
<trkpt lat="46.24996" lon="7.31577"><ele>829</ele><time>2022-05-08T14:46:10Z</time></trkpt>
<trkpt lat="46.25016" lon="7.31575"><ele>827</ele><time>2022-05-08T14:46:12Z</time></trkpt>
<trkpt lat="46.25037" lon="7.31575"><ele>824.8</ele><time>2022-05-08T14:46:14Z</time></trkpt>
<trkpt lat="46.25059" lon="7.31574"><ele>822.8</ele><time>2022-05-08T14:46:16Z</time></trkpt>
<trkpt lat="46.2508" lon="7.31573"><ele>820.8</ele><time>2022-05-08T14:46:18Z</time></trkpt>
<trkpt lat="46.25097" lon="7.31573"><ele>818.8</ele><time>2022-05-08T14:46:20Z</time></trkpt>
<trkpt lat="46.2512" lon="7.3159"><ele>817</ele><time>2022-05-08T14:46:23Z</time></trkpt>
<trkpt lat="46.25137" lon="7.31602"><ele>815.8</ele><time>2022-05-08T14:46:25Z</time></trkpt>
<trkpt lat="46.25154" lon="7.31614"><ele>814.8</ele><time>2022-05-08T14:46:27Z</time></trkpt>
<trkpt lat="46.25163" lon="7.31619"><ele>814.4</ele><time>2022-05-08T14:46:28Z</time></trkpt>
<trkpt lat="46.25181" lon="7.31627"><ele>813.2</ele><time>2022-05-08T14:46:30Z</time></trkpt>
<trkpt lat="46.252" lon="7.31633"><ele>811.8</ele><time>2022-05-08T14:46:32Z</time></trkpt>
<trkpt lat="46.25219" lon="7.31638"><ele>810.4</ele><time>2022-05-08T14:46:34Z</time></trkpt>
<trkpt lat="46.25238" lon="7.31643"><ele>809</ele><time>2022-05-08T14:46:36Z</time></trkpt>
<trkpt lat="46.25264" lon="7.31649"><ele>809.8</ele><time>2022-05-08T14:46:39Z</time></trkpt>
<trkpt lat="46.25281" lon="7.31657"><ele>807.4</ele><time>2022-05-08T14:46:41Z</time></trkpt>
<trkpt lat="46.25307" lon="7.31658"><ele>805.8</ele><time>2022-05-08T14:46:44Z</time></trkpt>
<trkpt lat="46.25315" lon="7.31656"><ele>805.4</ele><time>2022-05-08T14:46:45Z</time></trkpt>
<trkpt lat="46.25338" lon="7.31644"><ele>804.8</ele><time>2022-05-08T14:46:48Z</time></trkpt>
<trkpt lat="46.25358" lon="7.31621"><ele>803.2</ele><time>2022-05-08T14:46:51Z</time></trkpt>
<trkpt lat="46.25368" lon="7.31601"><ele>802.6</ele><time>2022-05-08T14:46:53Z</time></trkpt>
<trkpt lat="46.2538" lon="7.31584"><ele>802</ele><time>2022-05-08T14:46:55Z</time></trkpt>
<trkpt lat="46.25404" lon="7.31575"><ele>800.2</ele><time>2022-05-08T14:46:58Z</time></trkpt>
<trkpt lat="46.25428" lon="7.31584"><ele>798</ele><time>2022-05-08T14:47:01Z</time></trkpt>
<trkpt lat="46.25436" lon="7.31589"><ele>797.4</ele><time>2022-05-08T14:47:02Z</time></trkpt>
<trkpt lat="46.25454" lon="7.31611"><ele>795.6</ele><time>2022-05-08T14:47:05Z</time></trkpt>
<trkpt lat="46.2546" lon="7.31621"><ele>795</ele><time>2022-05-08T14:47:06Z</time></trkpt>
<trkpt lat="46.25469" lon="7.31642"><ele>793.4</ele><time>2022-05-08T14:47:08Z</time></trkpt>
<trkpt lat="46.25482" lon="7.31676"><ele>791.4</ele><time>2022-05-08T14:47:11Z</time></trkpt>
<trkpt lat="46.25495" lon="7.31697"><ele>790</ele><time>2022-05-08T14:47:13Z</time></trkpt>
<trkpt lat="46.2551" lon="7.31714"><ele>788.6</ele><time>2022-05-08T14:47:15Z</time></trkpt>
<trkpt lat="46.25524" lon="7.31733"><ele>787.6</ele><time>2022-05-08T14:47:17Z</time></trkpt>
<trkpt lat="46.25537" lon="7.31755"><ele>786.6</ele><time>2022-05-08T14:47:19Z</time></trkpt>
<trkpt lat="46.25553" lon="7.31774"><ele>785.6</ele><time>2022-05-08T14:47:21Z</time></trkpt>
<trkpt lat="46.25565" lon="7.31781"><ele>785</ele><time>2022-05-08T14:47:22Z</time></trkpt>
<trkpt lat="46.25585" lon="7.31785"><ele>783.2</ele><time>2022-05-08T14:47:24Z</time></trkpt>
<trkpt lat="46.25603" lon="7.3177"><ele>782</ele><time>2022-05-08T14:47:26Z</time></trkpt>
<trkpt lat="46.2562" lon="7.31753"><ele>780.6</ele><time>2022-05-08T14:47:28Z</time></trkpt>
<trkpt lat="46.25628" lon="7.31747"><ele>779.6</ele><time>2022-05-08T14:47:29Z</time></trkpt>
<trkpt lat="46.25653" lon="7.31739"><ele>777.2</ele><time>2022-05-08T14:47:32Z</time></trkpt>
<trkpt lat="46.25674" lon="7.31739"><ele>776.2</ele><time>2022-05-08T14:47:34Z</time></trkpt>
<trkpt lat="46.25684" lon="7.31737"><ele>776</ele><time>2022-05-08T14:47:35Z</time></trkpt>
<trkpt lat="46.25706" lon="7.31735"><ele>775</ele><time>2022-05-08T14:47:37Z</time></trkpt>
<trkpt lat="46.25726" lon="7.31736"><ele>773.8</ele><time>2022-05-08T14:47:39Z</time></trkpt>
<trkpt lat="46.25746" lon="7.31738"><ele>772.6</ele><time>2022-05-08T14:47:41Z</time></trkpt>
<trkpt lat="46.25766" lon="7.31739"><ele>771.4</ele><time>2022-05-08T14:47:43Z</time></trkpt>
<trkpt lat="46.25781" lon="7.31745"><ele>770.6</ele><time>2022-05-08T14:47:45Z</time></trkpt>
<trkpt lat="46.25799" lon="7.3176"><ele>770.2</ele><time>2022-05-08T14:47:47Z</time></trkpt>
<trkpt lat="46.25823" lon="7.31776"><ele>769.6</ele><time>2022-05-08T14:47:50Z</time></trkpt>
<trkpt lat="46.25839" lon="7.31781"><ele>769.6</ele><time>2022-05-08T14:47:52Z</time></trkpt>
<trkpt lat="46.25847" lon="7.3178"><ele>769.8</ele><time>2022-05-08T14:47:53Z</time></trkpt>
<trkpt lat="46.25866" lon="7.31771"><ele>768</ele><time>2022-05-08T14:47:56Z</time></trkpt>
<trkpt lat="46.25884" lon="7.31766"><ele>766.4</ele><time>2022-05-08T14:47:59Z</time></trkpt>
<trkpt lat="46.2589" lon="7.31764"><ele>766.4</ele><time>2022-05-08T14:48:00Z</time></trkpt>
<trkpt lat="46.25909" lon="7.3177"><ele>767.6</ele><time>2022-05-08T14:48:04Z</time></trkpt>
<trkpt lat="46.25912" lon="7.31773"><ele>768</ele><time>2022-05-08T14:48:05Z</time></trkpt>
<trkpt lat="46.2592" lon="7.31782"><ele>768.6</ele><time>2022-05-08T14:48:08Z</time></trkpt>
<trkpt lat="46.25925" lon="7.3179"><ele>768.8</ele><time>2022-05-08T14:48:10Z</time></trkpt>
<trkpt lat="46.2593" lon="7.31802"><ele>768</ele><time>2022-05-08T14:48:12Z</time></trkpt>
<trkpt lat="46.2594" lon="7.31819"><ele>766</ele><time>2022-05-08T14:48:15Z</time></trkpt>
<trkpt lat="46.25949" lon="7.3183"><ele>764.8</ele><time>2022-05-08T14:48:20Z</time></trkpt>
<trkpt lat="46.25955" lon="7.31834"><ele>764.6</ele><time>2022-05-08T14:48:23Z</time></trkpt>
<trkpt lat="46.25958" lon="7.31837"><ele>764.8</ele><time>2022-05-08T14:48:25Z</time></trkpt>
<trkpt lat="46.2596" lon="7.31838"><ele>764.6</ele><time>2022-05-08T14:48:26Z</time></trkpt>
<trkpt lat="46.25964" lon="7.31841"><ele>764.8</ele><time>2022-05-08T14:48:29Z</time></trkpt>
<trkpt lat="46.25966" lon="7.31842"><ele>765</ele><time>2022-05-08T14:48:30Z</time></trkpt>
<trkpt lat="46.25973" lon="7.31846"><ele>766.2</ele><time>2022-05-08T14:48:34Z</time></trkpt>
<trkpt lat="46.25977" lon="7.31849"><ele>766.8</ele><time>2022-05-08T14:48:36Z</time></trkpt>
<trkpt lat="46.25996" lon="7.31855"><ele>771.2</ele><time>2022-05-08T14:48:44Z</time></trkpt>
<trkpt lat="46.25999" lon="7.31856"><ele>772</ele><time>2022-05-08T14:48:45Z</time></trkpt>
<trkpt lat="46.26001" lon="7.31856"><ele>772.4</ele><time>2022-05-08T14:48:46Z</time></trkpt>
<trkpt lat="46.26003" lon="7.31857"><ele>773</ele><time>2022-05-08T14:48:47Z</time></trkpt>
<trkpt lat="46.26013" lon="7.31864"><ele>774</ele><time>2022-05-08T14:48:52Z</time></trkpt>
<trkpt lat="46.26022" lon="7.3188"><ele>773.8</ele><time>2022-05-08T14:48:57Z</time></trkpt>
<trkpt lat="46.26033" lon="7.319"><ele>775.2</ele><time>2022-05-08T14:49:04Z</time></trkpt>
<trkpt lat="46.26041" lon="7.31908"><ele>775.4</ele><time>2022-05-08T14:49:08Z</time></trkpt>
<trkpt lat="46.26046" lon="7.31912"><ele>776.4</ele><time>2022-05-08T14:49:10Z</time></trkpt>
<trkpt lat="46.26061" lon="7.31918"><ele>777.8</ele><time>2022-05-08T14:49:16Z</time></trkpt>
<trkpt lat="46.26064" lon="7.31917"><ele>778</ele><time>2022-05-08T14:49:17Z</time></trkpt>
<trkpt lat="46.26072" lon="7.31915"><ele>779.2</ele><time>2022-05-08T14:49:20Z</time></trkpt>
<trkpt lat="46.2609" lon="7.3191"><ele>780.8</ele><time>2022-05-08T14:49:26Z</time></trkpt>
<trkpt lat="46.261" lon="7.31909"><ele>781.4</ele><time>2022-05-08T14:49:29Z</time></trkpt>
<trkpt lat="46.26111" lon="7.31906"><ele>782</ele><time>2022-05-08T14:49:34Z</time></trkpt>
<trkpt lat="46.26129" lon="7.31905"><ele>785.6</ele><time>2022-05-08T14:49:43Z</time></trkpt>
<trkpt lat="46.26149" lon="7.31908"><ele>789.4</ele><time>2022-05-08T14:49:55Z</time></trkpt>
<trkpt lat="46.26159" lon="7.3191"><ele>791.4</ele><time>2022-05-08T14:50:01Z</time></trkpt>
<trkpt lat="46.26176" lon="7.31917"><ele>790.8</ele><time>2022-05-08T14:50:11Z</time></trkpt>
<trkpt lat="46.26194" lon="7.31926"><ele>789.4</ele><time>2022-05-08T14:50:20Z</time></trkpt>
<trkpt lat="46.2621" lon="7.31938"><ele>789.8</ele><time>2022-05-08T14:50:31Z</time></trkpt>
<trkpt lat="46.26222" lon="7.31946"><ele>790.4</ele><time>2022-05-08T14:50:39Z</time></trkpt>
<trkpt lat="46.26239" lon="7.31958"><ele>791.2</ele><time>2022-05-08T14:50:49Z</time></trkpt>
<trkpt lat="46.26258" lon="7.31968"><ele>792.4</ele><time>2022-05-08T14:51:00Z</time></trkpt>
<trkpt lat="46.26276" lon="7.31976"><ele>795.4</ele><time>2022-05-08T14:51:11Z</time></trkpt>
<trkpt lat="46.26293" lon="7.31988"><ele>798.8</ele><time>2022-05-08T14:51:22Z</time></trkpt>
<trkpt lat="46.26307" lon="7.32007"><ele>804.6</ele><time>2022-05-08T14:51:35Z</time></trkpt>
<trkpt lat="46.26325" lon="7.32021"><ele>809</ele><time>2022-05-08T14:51:47Z</time></trkpt>
<trkpt lat="46.26343" lon="7.32026"><ele>812</ele><time>2022-05-08T14:51:59Z</time></trkpt>
<trkpt lat="46.26355" lon="7.32029"><ele>813.4</ele><time>2022-05-08T14:52:08Z</time></trkpt>
<trkpt lat="46.26361" lon="7.3203"><ele>813.8</ele><time>2022-05-08T14:52:12Z</time></trkpt>
<trkpt lat="46.26386" lon="7.32034"><ele>814</ele><time>2022-05-08T14:52:31Z</time></trkpt>
<trkpt lat="46.26405" lon="7.32034"><ele>815</ele><time>2022-05-08T14:52:45Z</time></trkpt>
<trkpt lat="46.26414" lon="7.32034"><ele>816.6</ele><time>2022-05-08T14:52:52Z</time></trkpt>
<trkpt lat="46.26418" lon="7.32033"><ele>817.4</ele><time>2022-05-08T14:52:56Z</time></trkpt>
<trkpt lat="46.26429" lon="7.3204"><ele>818.8</ele><time>2022-05-08T14:53:07Z</time></trkpt>
<trkpt lat="46.26445" lon="7.32053"><ele>822.8</ele><time>2022-05-08T14:53:28Z</time></trkpt>
<trkpt lat="46.2646" lon="7.32068"><ele>826.6</ele><time>2022-05-08T14:53:46Z</time></trkpt>
<trkpt lat="46.26481" lon="7.32083"><ele>829.4</ele><time>2022-05-08T14:54:06Z</time></trkpt>
<trkpt lat="46.26499" lon="7.32083"><ele>831.4</ele><time>2022-05-08T14:54:21Z</time></trkpt>
<trkpt lat="46.26513" lon="7.32098"><ele>833.8</ele><time>2022-05-08T14:54:39Z</time></trkpt>
<trkpt lat="46.26531" lon="7.32105"><ele>836.4</ele><time>2022-05-08T14:54:55Z</time></trkpt>
<trkpt lat="46.26546" lon="7.3212"><ele>838.4</ele><time>2022-05-08T14:55:11Z</time></trkpt>
<trkpt lat="46.26559" lon="7.32146"><ele>839</ele><time>2022-05-08T14:55:28Z</time></trkpt>
<trkpt lat="46.26569" lon="7.32168"><ele>839.6</ele><time>2022-05-08T14:55:46Z</time></trkpt>
<trkpt lat="46.26586" lon="7.32162"><ele>841.4</ele><time>2022-05-08T14:56:00Z</time></trkpt>
<trkpt lat="46.26588" lon="7.3216"><ele>841.8</ele><time>2022-05-08T14:56:02Z</time></trkpt>
<trkpt lat="46.26603" lon="7.32154"><ele>843.8</ele><time>2022-05-08T14:56:16Z</time></trkpt>
<trkpt lat="46.26611" lon="7.32155"><ele>845.6</ele><time>2022-05-08T14:56:24Z</time></trkpt>
<trkpt lat="46.26633" lon="7.32156"><ele>853.8</ele><time>2022-05-08T14:56:50Z</time></trkpt>
<trkpt lat="46.26651" lon="7.32153"><ele>856.8</ele><time>2022-05-08T14:57:06Z</time></trkpt>
<trkpt lat="46.26669" lon="7.32151"><ele>859</ele><time>2022-05-08T14:57:21Z</time></trkpt>
<trkpt lat="46.26688" lon="7.3215"><ele>862</ele><time>2022-05-08T14:57:39Z</time></trkpt>
<trkpt lat="46.26699" lon="7.32151"><ele>865.6</ele><time>2022-05-08T14:57:51Z</time></trkpt>
<trkpt lat="46.26702" lon="7.32152"><ele>866.4</ele><time>2022-05-08T14:57:55Z</time></trkpt>
<trkpt lat="46.26709" lon="7.32158"><ele>867.4</ele><time>2022-05-08T14:58:03Z</time></trkpt>
<trkpt lat="46.26727" lon="7.32183"><ele>866.8</ele><time>2022-05-08T14:58:20Z</time></trkpt>
<trkpt lat="46.26738" lon="7.32204"><ele>869</ele><time>2022-05-08T14:58:38Z</time></trkpt>
<trkpt lat="46.26754" lon="7.32217"><ele>872</ele><time>2022-05-08T14:58:57Z</time></trkpt>
<trkpt lat="46.26769" lon="7.32232"><ele>874.4</ele><time>2022-05-08T14:59:14Z</time></trkpt>
<trkpt lat="46.26782" lon="7.32249"><ele>878.2</ele><time>2022-05-08T14:59:29Z</time></trkpt>
<trkpt lat="46.26789" lon="7.32255"><ele>879.2</ele><time>2022-05-08T14:59:33Z</time></trkpt>
<trkpt lat="46.26805" lon="7.32266"><ele>880.2</ele><time>2022-05-08T14:59:41Z</time></trkpt>
<trkpt lat="46.26823" lon="7.32272"><ele>881</ele><time>2022-05-08T14:59:54Z</time></trkpt>
<trkpt lat="46.26836" lon="7.32273"><ele>881</ele><time>2022-05-08T15:00:06Z</time></trkpt>
<trkpt lat="46.26845" lon="7.32276"><ele>881.6</ele><time>2022-05-08T15:00:18Z</time></trkpt>
<trkpt lat="46.26844" lon="7.32276"><ele>880.6</ele><time>2022-05-08T15:00:35Z</time></trkpt>
<trkpt lat="46.26842" lon="7.32274"><ele>881.4</ele><time>2022-05-08T15:00:57Z</time></trkpt>
<trkpt lat="46.26842" lon="7.32273"><ele>881.4</ele><time>2022-05-08T15:00:58Z</time></trkpt>
<trkpt lat="46.26839" lon="7.32269"><ele>881.4</ele><time>2022-05-08T15:01:05Z</time></trkpt>
<trkpt lat="46.26838" lon="7.32269"><ele>881.4</ele><time>2022-05-08T15:01:09Z</time></trkpt>
<trkpt lat="46.26849" lon="7.32283"><ele>881.8</ele><time>2022-05-08T15:01:24Z</time></trkpt>
<trkpt lat="46.26862" lon="7.32312"><ele>882.2</ele><time>2022-05-08T15:01:41Z</time></trkpt>
<trkpt lat="46.26877" lon="7.3233"><ele>883.6</ele><time>2022-05-08T15:01:56Z</time></trkpt>
<trkpt lat="46.26882" lon="7.32338"><ele>884.4</ele><time>2022-05-08T15:02:02Z</time></trkpt>
<trkpt lat="46.26886" lon="7.32343"><ele>885</ele><time>2022-05-08T15:02:06Z</time></trkpt>
<trkpt lat="46.26902" lon="7.32356"><ele>890</ele><time>2022-05-08T15:02:20Z</time></trkpt>
<trkpt lat="46.26906" lon="7.32356"><ele>892</ele><time>2022-05-08T15:02:22Z</time></trkpt>
<trkpt lat="46.26908" lon="7.32359"><ele>892.6</ele><time>2022-05-08T15:02:24Z</time></trkpt>
<trkpt lat="46.26916" lon="7.32366"><ele>896</ele><time>2022-05-08T15:02:34Z</time></trkpt>
<trkpt lat="46.26924" lon="7.32369"><ele>898.4</ele><time>2022-05-08T15:02:41Z</time></trkpt>
<trkpt lat="46.26942" lon="7.32372"><ele>900.8</ele><time>2022-05-08T15:02:58Z</time></trkpt>
<trkpt lat="46.26962" lon="7.32372"><ele>901.8</ele><time>2022-05-08T15:03:15Z</time></trkpt>
<trkpt lat="46.26981" lon="7.32379"><ele>904</ele><time>2022-05-08T15:03:28Z</time></trkpt>
<trkpt lat="46.26999" lon="7.32381"><ele>904.4</ele><time>2022-05-08T15:03:39Z</time></trkpt>
<trkpt lat="46.27015" lon="7.32367"><ele>903.6</ele><time>2022-05-08T15:03:51Z</time></trkpt>
<trkpt lat="46.27024" lon="7.32345"><ele>902.2</ele><time>2022-05-08T15:04:02Z</time></trkpt>
<trkpt lat="46.27031" lon="7.3232"><ele>900.2</ele><time>2022-05-08T15:04:14Z</time></trkpt>
<trkpt lat="46.27039" lon="7.32296"><ele>901.4</ele><time>2022-05-08T15:04:26Z</time></trkpt>
<trkpt lat="46.27051" lon="7.32275"><ele>902.6</ele><time>2022-05-08T15:04:38Z</time></trkpt>
<trkpt lat="46.27073" lon="7.32255"><ele>904.2</ele><time>2022-05-08T15:04:55Z</time></trkpt>
<trkpt lat="46.27087" lon="7.32239"><ele>905.6</ele><time>2022-05-08T15:05:07Z</time></trkpt>
<trkpt lat="46.27087" lon="7.32213"><ele>906</ele><time>2022-05-08T15:05:20Z</time></trkpt>
<trkpt lat="46.27084" lon="7.32206"><ele>906.8</ele><time>2022-05-08T15:05:27Z</time></trkpt>
<trkpt lat="46.27091" lon="7.32248"><ele>907</ele><time>2022-05-08T15:05:39Z</time></trkpt>
<trkpt lat="46.27044" lon="7.3211"><ele>909.4</ele><time>2022-05-08T15:06:14Z</time></trkpt>
<trkpt lat="46.27028" lon="7.32098"><ele>910.4</ele><time>2022-05-08T15:06:25Z</time></trkpt>
<trkpt lat="46.27016" lon="7.32073"><ele>913.4</ele><time>2022-05-08T15:06:35Z</time></trkpt>
<trkpt lat="46.26998" lon="7.3207"><ele>916</ele><time>2022-05-08T15:06:45Z</time></trkpt>
<trkpt lat="46.26979" lon="7.3207"><ele>920.4</ele><time>2022-05-08T15:06:56Z</time></trkpt>
<trkpt lat="46.26962" lon="7.32064"><ele>923.6</ele><time>2022-05-08T15:07:07Z</time></trkpt>
<trkpt lat="46.26937" lon="7.32045"><ele>928.8</ele><time>2022-05-08T15:07:24Z</time></trkpt>
<trkpt lat="46.26925" lon="7.32029"><ele>933</ele><time>2022-05-08T15:07:36Z</time></trkpt>
<trkpt lat="46.26911" lon="7.32011"><ele>937.2</ele><time>2022-05-08T15:07:49Z</time></trkpt>
<trkpt lat="46.26895" lon="7.31996"><ele>941.2</ele><time>2022-05-08T15:08:02Z</time></trkpt>
<trkpt lat="46.26879" lon="7.31982"><ele>944</ele><time>2022-05-08T15:08:15Z</time></trkpt>
<trkpt lat="46.26876" lon="7.31979"><ele>944.6</ele><time>2022-05-08T15:08:17Z</time></trkpt>
<trkpt lat="46.26873" lon="7.31972"><ele>945.4</ele><time>2022-05-08T15:08:21Z</time></trkpt>
<trkpt lat="46.26865" lon="7.31958"><ele>947</ele><time>2022-05-08T15:08:29Z</time></trkpt>
<trkpt lat="46.26854" lon="7.31936"><ele>949.4</ele><time>2022-05-08T15:08:40Z</time></trkpt>
<trkpt lat="46.26836" lon="7.3191"><ele>952.2</ele><time>2022-05-08T15:08:57Z</time></trkpt>
<trkpt lat="46.26828" lon="7.319"><ele>953.6</ele><time>2022-05-08T15:09:05Z</time></trkpt>
<trkpt lat="46.26813" lon="7.31884"><ele>954.4</ele><time>2022-05-08T15:09:18Z</time></trkpt>
<trkpt lat="46.26812" lon="7.31875"><ele>954.6</ele><time>2022-05-08T15:09:22Z</time></trkpt>
<trkpt lat="46.26818" lon="7.31872"><ele>955.2</ele><time>2022-05-08T15:09:27Z</time></trkpt>
<trkpt lat="46.26821" lon="7.31873"><ele>955.2</ele><time>2022-05-08T15:09:29Z</time></trkpt>
<trkpt lat="46.26841" lon="7.31894"><ele>955.8</ele><time>2022-05-08T15:09:45Z</time></trkpt>
<trkpt lat="46.26843" lon="7.31897"><ele>955.6</ele><time>2022-05-08T15:09:47Z</time></trkpt>
<trkpt lat="46.26858" lon="7.31916"><ele>955.8</ele><time>2022-05-08T15:10:00Z</time></trkpt>
<trkpt lat="46.26867" lon="7.31926"><ele>955.6</ele><time>2022-05-08T15:10:08Z</time></trkpt>
<trkpt lat="46.26883" lon="7.3194"><ele>955.6</ele><time>2022-05-08T15:10:21Z</time></trkpt>
<trkpt lat="46.26884" lon="7.31946"><ele>955.2</ele><time>2022-05-08T15:10:25Z</time></trkpt>
<trkpt lat="46.26887" lon="7.31946"><ele>954.8</ele><time>2022-05-08T15:10:41Z</time></trkpt>
<trkpt lat="46.26888" lon="7.31948"><ele>954.4</ele><time>2022-05-08T15:10:54Z</time></trkpt>
<trkpt lat="46.2689" lon="7.31949"><ele>952.6</ele><time>2022-05-08T15:11:04Z</time></trkpt>
<trkpt lat="46.26892" lon="7.31951"><ele>951.8</ele><time>2022-05-08T15:11:14Z</time></trkpt>
<trkpt lat="46.26891" lon="7.31951"><ele>951.6</ele><time>2022-05-08T15:11:21Z</time></trkpt>
<trkpt lat="46.26888" lon="7.31942"><ele>952.6</ele><time>2022-05-08T15:12:19Z</time></trkpt>
<trkpt lat="46.26888" lon="7.31933"><ele>951.8</ele><time>2022-05-08T15:12:35Z</time></trkpt>
<trkpt lat="46.26889" lon="7.31942"><ele>953</ele><time>2022-05-08T15:13:06Z</time></trkpt>
<trkpt lat="46.2689" lon="7.31941"><ele>953</ele><time>2022-05-08T15:13:13Z</time></trkpt>
<trkpt lat="46.26887" lon="7.3194"><ele>953.6</ele><time>2022-05-08T15:13:22Z</time></trkpt>
<trkpt lat="46.26897" lon="7.31938"><ele>953.6</ele><time>2022-05-08T15:13:40Z</time></trkpt>
<trkpt lat="46.26918" lon="7.31951"><ele>953.4</ele><time>2022-05-08T15:13:56Z</time></trkpt>
<trkpt lat="46.26922" lon="7.31954"><ele>953.2</ele><time>2022-05-08T15:13:59Z</time></trkpt>
<trkpt lat="46.26927" lon="7.31957"><ele>952.8</ele><time>2022-05-08T15:14:03Z</time></trkpt>
<trkpt lat="46.26937" lon="7.31962"><ele>952.4</ele><time>2022-05-08T15:14:11Z</time></trkpt>
<trkpt lat="46.26946" lon="7.31967"><ele>952.6</ele><time>2022-05-08T15:14:17Z</time></trkpt>
<trkpt lat="46.2696" lon="7.31968"><ele>953.2</ele><time>2022-05-08T15:14:26Z</time></trkpt>
<trkpt lat="46.26979" lon="7.31962"><ele>955.6</ele><time>2022-05-08T15:14:38Z</time></trkpt>
<trkpt lat="46.26998" lon="7.31963"><ele>960</ele><time>2022-05-08T15:14:51Z</time></trkpt>
<trkpt lat="46.27021" lon="7.3198"><ele>962.6</ele><time>2022-05-08T15:15:07Z</time></trkpt>
<trkpt lat="46.27037" lon="7.31995"><ele>964.4</ele><time>2022-05-08T15:15:19Z</time></trkpt>
<trkpt lat="46.27054" lon="7.32004"><ele>965.6</ele><time>2022-05-08T15:15:30Z</time></trkpt>
<trkpt lat="46.27072" lon="7.3201"><ele>968.4</ele><time>2022-05-08T15:15:42Z</time></trkpt>
<trkpt lat="46.2709" lon="7.32016"><ele>971.2</ele><time>2022-05-08T15:15:53Z</time></trkpt>
<trkpt lat="46.27108" lon="7.32023"><ele>973.8</ele><time>2022-05-08T15:16:04Z</time></trkpt>
<trkpt lat="46.27135" lon="7.32031"><ele>978.4</ele><time>2022-05-08T15:16:22Z</time></trkpt>
<trkpt lat="46.27152" lon="7.32022"><ele>982</ele><time>2022-05-08T15:16:33Z</time></trkpt>
<trkpt lat="46.2717" lon="7.32019"><ele>985</ele><time>2022-05-08T15:16:44Z</time></trkpt>
<trkpt lat="46.27177" lon="7.32024"><ele>986.6</ele><time>2022-05-08T15:16:50Z</time></trkpt>
<trkpt lat="46.27183" lon="7.32026"><ele>987.2</ele><time>2022-05-08T15:16:54Z</time></trkpt>
<trkpt lat="46.27187" lon="7.32028"><ele>988</ele><time>2022-05-08T15:16:57Z</time></trkpt>
<trkpt lat="46.272" lon="7.32041"><ele>990.8</ele><time>2022-05-08T15:17:08Z</time></trkpt>
<trkpt lat="46.27214" lon="7.3206"><ele>994.4</ele><time>2022-05-08T15:17:21Z</time></trkpt>
<trkpt lat="46.2723" lon="7.32074"><ele>996.8</ele><time>2022-05-08T15:17:32Z</time></trkpt>
<trkpt lat="46.27245" lon="7.32088"><ele>998.8</ele><time>2022-05-08T15:17:44Z</time></trkpt>
<trkpt lat="46.2726" lon="7.32102"><ele>1000.6</ele><time>2022-05-08T15:17:56Z</time></trkpt>
<trkpt lat="46.27274" lon="7.3211"><ele>1002.4</ele><time>2022-05-08T15:18:05Z</time></trkpt>
<trkpt lat="46.27284" lon="7.32114"><ele>1003.4</ele><time>2022-05-08T15:18:11Z</time></trkpt>
<trkpt lat="46.27306" lon="7.32135"><ele>1006.4</ele><time>2022-05-08T15:18:29Z</time></trkpt>
<trkpt lat="46.27319" lon="7.32156"><ele>1008.6</ele><time>2022-05-08T15:18:42Z</time></trkpt>
<trkpt lat="46.27331" lon="7.3217"><ele>1010.6</ele><time>2022-05-08T15:18:52Z</time></trkpt>
<trkpt lat="46.27338" lon="7.32183"><ele>1012.4</ele><time>2022-05-08T15:19:00Z</time></trkpt>
<trkpt lat="46.27349" lon="7.32205"><ele>1014.6</ele><time>2022-05-08T15:19:13Z</time></trkpt>
<trkpt lat="46.2735" lon="7.32205"><ele>1015</ele><time>2022-05-08T15:19:14Z</time></trkpt>
<trkpt lat="46.27353" lon="7.3221"><ele>1015.2</ele><time>2022-05-08T15:19:17Z</time></trkpt>
<trkpt lat="46.2736" lon="7.32218"><ele>1016</ele><time>2022-05-08T15:19:23Z</time></trkpt>
<trkpt lat="46.27369" lon="7.32243"><ele>1012.2</ele><time>2022-05-08T15:19:37Z</time></trkpt>
<trkpt lat="46.27371" lon="7.32257"><ele>1007.6</ele><time>2022-05-08T15:19:45Z</time></trkpt>
<trkpt lat="46.27373" lon="7.32265"><ele>1006.8</ele><time>2022-05-08T15:19:49Z</time></trkpt>
<trkpt lat="46.27374" lon="7.32268"><ele>1006.2</ele><time>2022-05-08T15:19:51Z</time></trkpt>
<trkpt lat="46.27385" lon="7.32289"><ele>1005.2</ele><time>2022-05-08T15:20:04Z</time></trkpt>
<trkpt lat="46.27402" lon="7.3229"><ele>1006.4</ele><time>2022-05-08T15:20:14Z</time></trkpt>
<trkpt lat="46.27401" lon="7.32264"><ele>1008</ele><time>2022-05-08T15:20:26Z</time></trkpt>
<trkpt lat="46.2739" lon="7.32232"><ele>1011.4</ele><time>2022-05-08T15:20:41Z</time></trkpt>
<trkpt lat="46.27386" lon="7.32207"><ele>1014</ele><time>2022-05-08T15:20:52Z</time></trkpt>
<trkpt lat="46.27379" lon="7.32182"><ele>1016.8</ele><time>2022-05-08T15:21:07Z</time></trkpt>
<trkpt lat="46.27367" lon="7.32162"><ele>1020</ele><time>2022-05-08T15:21:22Z</time></trkpt>
<trkpt lat="46.27355" lon="7.3214"><ele>1024.2</ele><time>2022-05-08T15:21:35Z</time></trkpt>
<trkpt lat="46.27342" lon="7.3212"><ele>1030.2</ele><time>2022-05-08T15:21:49Z</time></trkpt>
<trkpt lat="46.2733" lon="7.321"><ele>1033.4</ele><time>2022-05-08T15:21:59Z</time></trkpt>
<trkpt lat="46.27313" lon="7.32071"><ele>1034.6</ele><time>2022-05-08T15:22:07Z</time></trkpt>
<trkpt lat="46.27299" lon="7.3205"><ele>1035</ele><time>2022-05-08T15:22:12Z</time></trkpt>
<trkpt lat="46.27298" lon="7.32048"><ele>1034.8</ele><time>2022-05-08T15:22:13Z</time></trkpt>
<trkpt lat="46.27289" lon="7.32038"><ele>1035</ele><time>2022-05-08T15:22:19Z</time></trkpt>
<trkpt lat="46.2728" lon="7.32025"><ele>1034.2</ele><time>2022-05-08T15:22:26Z</time></trkpt>
<trkpt lat="46.27267" lon="7.32006"><ele>1034.4</ele><time>2022-05-08T15:22:38Z</time></trkpt>
<trkpt lat="46.27255" lon="7.31986"><ele>1036.2</ele><time>2022-05-08T15:22:50Z</time></trkpt>
<trkpt lat="46.27243" lon="7.31965"><ele>1037.4</ele><time>2022-05-08T15:23:02Z</time></trkpt>
<trkpt lat="46.27229" lon="7.31947"><ele>1037.4</ele><time>2022-05-08T15:23:13Z</time></trkpt>
<trkpt lat="46.27204" lon="7.31933"><ele>1038.6</ele><time>2022-05-08T15:23:29Z</time></trkpt>
<trkpt lat="46.27188" lon="7.31918"><ele>1038.6</ele><time>2022-05-08T15:23:40Z</time></trkpt>
<trkpt lat="46.2718" lon="7.31912"><ele>1038</ele><time>2022-05-08T15:23:42Z</time></trkpt>
<trkpt lat="46.27159" lon="7.319"><ele>1036.6</ele><time>2022-05-08T15:23:46Z</time></trkpt>
<trkpt lat="46.27142" lon="7.31887"><ele>1035.6</ele><time>2022-05-08T15:23:49Z</time></trkpt>
<trkpt lat="46.27125" lon="7.31874"><ele>1033.8</ele><time>2022-05-08T15:23:52Z</time></trkpt>
<trkpt lat="46.27119" lon="7.31869"><ele>1033.2</ele><time>2022-05-08T15:23:53Z</time></trkpt>
<trkpt lat="46.27107" lon="7.3186"><ele>1032</ele><time>2022-05-08T15:23:55Z</time></trkpt>
<trkpt lat="46.27101" lon="7.31855"><ele>1031.4</ele><time>2022-05-08T15:23:56Z</time></trkpt>
<trkpt lat="46.27089" lon="7.31844"><ele>1029.4</ele><time>2022-05-08T15:23:58Z</time></trkpt>
<trkpt lat="46.27072" lon="7.31822"><ele>1023.6</ele><time>2022-05-08T15:24:01Z</time></trkpt>
<trkpt lat="46.27054" lon="7.31797"><ele>1019.8</ele><time>2022-05-08T15:24:04Z</time></trkpt>
<trkpt lat="46.27042" lon="7.31781"><ele>1018.4</ele><time>2022-05-08T15:24:06Z</time></trkpt>
<trkpt lat="46.27021" lon="7.31764"><ele>1016.6</ele><time>2022-05-08T15:24:09Z</time></trkpt>
<trkpt lat="46.26997" lon="7.31759"><ele>1014.2</ele><time>2022-05-08T15:24:12Z</time></trkpt>
<trkpt lat="46.26971" lon="7.31766"><ele>1012.2</ele><time>2022-05-08T15:24:15Z</time></trkpt>
<trkpt lat="46.26954" lon="7.31779"><ele>1010.2</ele><time>2022-05-08T15:24:17Z</time></trkpt>
<trkpt lat="46.26946" lon="7.31787"><ele>1009.4</ele><time>2022-05-08T15:24:18Z</time></trkpt>
<trkpt lat="46.26936" lon="7.31794"><ele>1008.2</ele><time>2022-05-08T15:24:19Z</time></trkpt>
<trkpt lat="46.26915" lon="7.318"><ele>1006.6</ele><time>2022-05-08T15:24:21Z</time></trkpt>
<trkpt lat="46.26893" lon="7.31791"><ele>1005.2</ele><time>2022-05-08T15:24:23Z</time></trkpt>
<trkpt lat="46.26873" lon="7.31773"><ele>1003.8</ele><time>2022-05-08T15:24:25Z</time></trkpt>
<trkpt lat="46.26855" lon="7.31748"><ele>1002.4</ele><time>2022-05-08T15:24:27Z</time></trkpt>
<trkpt lat="46.26835" lon="7.31724"><ele>1000.4</ele><time>2022-05-08T15:24:29Z</time></trkpt>
<trkpt lat="46.26817" lon="7.31699"><ele>996.6</ele><time>2022-05-08T15:24:31Z</time></trkpt>
<trkpt lat="46.26808" lon="7.31684"><ele>995</ele><time>2022-05-08T15:24:32Z</time></trkpt>
<trkpt lat="46.26797" lon="7.3165"><ele>991.6</ele><time>2022-05-08T15:24:34Z</time></trkpt>
<trkpt lat="46.26792" lon="7.31614"><ele>988.2</ele><time>2022-05-08T15:24:36Z</time></trkpt>
<trkpt lat="46.26796" lon="7.31579"><ele>985.2</ele><time>2022-05-08T15:24:38Z</time></trkpt>
<trkpt lat="46.26807" lon="7.31548"><ele>982.6</ele><time>2022-05-08T15:24:40Z</time></trkpt>
<trkpt lat="46.26824" lon="7.3152"><ele>981.4</ele><time>2022-05-08T15:24:42Z</time></trkpt>
<trkpt lat="46.26845" lon="7.31497"><ele>980.2</ele><time>2022-05-08T15:24:44Z</time></trkpt>
<trkpt lat="46.26855" lon="7.31485"><ele>979.4</ele><time>2022-05-08T15:24:45Z</time></trkpt>
<trkpt lat="46.2687" lon="7.31455"><ele>977.4</ele><time>2022-05-08T15:24:47Z</time></trkpt>
<trkpt lat="46.26879" lon="7.31421"><ele>974.8</ele><time>2022-05-08T15:24:49Z</time></trkpt>
<trkpt lat="46.26883" lon="7.31386"><ele>972.4</ele><time>2022-05-08T15:24:51Z</time></trkpt>
<trkpt lat="46.26886" lon="7.31369"><ele>971.2</ele><time>2022-05-08T15:24:52Z</time></trkpt>
<trkpt lat="46.26891" lon="7.31336"><ele>969.2</ele><time>2022-05-08T15:24:54Z</time></trkpt>
<trkpt lat="46.26894" lon="7.31305"><ele>967.4</ele><time>2022-05-08T15:24:56Z</time></trkpt>
<trkpt lat="46.26885" lon="7.31279"><ele>965.4</ele><time>2022-05-08T15:24:58Z</time></trkpt>
<trkpt lat="46.26867" lon="7.31268"><ele>963</ele><time>2022-05-08T15:25:00Z</time></trkpt>
<trkpt lat="46.26841" lon="7.31272"><ele>960.4</ele><time>2022-05-08T15:25:03Z</time></trkpt>
<trkpt lat="46.26826" lon="7.3128"><ele>959.2</ele><time>2022-05-08T15:25:05Z</time></trkpt>
<trkpt lat="46.26815" lon="7.3129"><ele>957.8</ele><time>2022-05-08T15:25:07Z</time></trkpt>
<trkpt lat="46.268" lon="7.31306"><ele>955.6</ele><time>2022-05-08T15:25:11Z</time></trkpt>
<trkpt lat="46.26795" lon="7.31313"><ele>954.6</ele><time>2022-05-08T15:25:13Z</time></trkpt>
<trkpt lat="46.2679" lon="7.31318"><ele>954.4</ele><time>2022-05-08T15:25:15Z</time></trkpt>
<trkpt lat="46.26783" lon="7.31327"><ele>953</ele><time>2022-05-08T15:25:19Z</time></trkpt>
<trkpt lat="46.26773" lon="7.31342"><ele>955</ele><time>2022-05-08T15:25:25Z</time></trkpt>
<trkpt lat="46.26767" lon="7.31352"><ele>955.6</ele><time>2022-05-08T15:25:29Z</time></trkpt>
<trkpt lat="46.26765" lon="7.31355"><ele>956</ele><time>2022-05-08T15:25:30Z</time></trkpt>
<trkpt lat="46.26763" lon="7.3136"><ele>957.6</ele><time>2022-05-08T15:25:32Z</time></trkpt>
<trkpt lat="46.26758" lon="7.31367"><ele>958.8</ele><time>2022-05-08T15:25:35Z</time></trkpt>
<trkpt lat="46.26755" lon="7.31375"><ele>960</ele><time>2022-05-08T15:25:38Z</time></trkpt>
<trkpt lat="46.26753" lon="7.31377"><ele>960.8</ele><time>2022-05-08T15:25:39Z</time></trkpt>
<trkpt lat="46.26748" lon="7.31386"><ele>963.2</ele><time>2022-05-08T15:25:43Z</time></trkpt>
<trkpt lat="46.26745" lon="7.3139"><ele>964.6</ele><time>2022-05-08T15:25:45Z</time></trkpt>
<trkpt lat="46.26744" lon="7.31393"><ele>964.8</ele><time>2022-05-08T15:25:46Z</time></trkpt>
<trkpt lat="46.26733" lon="7.31411"><ele>968.4</ele><time>2022-05-08T15:25:53Z</time></trkpt>
<trkpt lat="46.26729" lon="7.31422"><ele>971.4</ele><time>2022-05-08T15:25:57Z</time></trkpt>
<trkpt lat="46.26725" lon="7.31441"><ele>973.4</ele><time>2022-05-08T15:26:04Z</time></trkpt>
<trkpt lat="46.26722" lon="7.31452"><ele>975</ele><time>2022-05-08T15:26:08Z</time></trkpt>
<trkpt lat="46.26721" lon="7.31454"><ele>975.2</ele><time>2022-05-08T15:26:09Z</time></trkpt>
<trkpt lat="46.26721" lon="7.31457"><ele>975.6</ele><time>2022-05-08T15:26:10Z</time></trkpt>
<trkpt lat="46.2672" lon="7.31466"><ele>976.6</ele><time>2022-05-08T15:26:13Z</time></trkpt>
<trkpt lat="46.2672" lon="7.31469"><ele>977</ele><time>2022-05-08T15:26:14Z</time></trkpt>
<trkpt lat="46.26719" lon="7.31472"><ele>977.2</ele><time>2022-05-08T15:26:15Z</time></trkpt>
<trkpt lat="46.26718" lon="7.31485"><ele>978.4</ele><time>2022-05-08T15:26:19Z</time></trkpt>
<trkpt lat="46.26715" lon="7.31496"><ele>979.2</ele><time>2022-05-08T15:26:23Z</time></trkpt>
<trkpt lat="46.26714" lon="7.31502"><ele>980</ele><time>2022-05-08T15:26:25Z</time></trkpt>
<trkpt lat="46.26711" lon="7.31513"><ele>981.8</ele><time>2022-05-08T15:26:29Z</time></trkpt>
<trkpt lat="46.26699" lon="7.31533"><ele>984.4</ele><time>2022-05-08T15:26:37Z</time></trkpt>
<trkpt lat="46.26679" lon="7.31533"><ele>981.8</ele><time>2022-05-08T15:26:42Z</time></trkpt>
<trkpt lat="46.26661" lon="7.31525"><ele>983</ele><time>2022-05-08T15:26:47Z</time></trkpt>
<trkpt lat="46.26641" lon="7.31514"><ele>984</ele><time>2022-05-08T15:26:52Z</time></trkpt>
<trkpt lat="46.2662" lon="7.31505"><ele>984</ele><time>2022-05-08T15:26:57Z</time></trkpt>
<trkpt lat="46.26605" lon="7.31504"><ele>984</ele><time>2022-05-08T15:27:00Z</time></trkpt>
<trkpt lat="46.26585" lon="7.31507"><ele>983.8</ele><time>2022-05-08T15:27:04Z</time></trkpt>
<trkpt lat="46.26563" lon="7.31507"><ele>983.2</ele><time>2022-05-08T15:27:08Z</time></trkpt>
<trkpt lat="46.26557" lon="7.31506"><ele>983</ele><time>2022-05-08T15:27:09Z</time></trkpt>
<trkpt lat="46.26538" lon="7.31506"><ele>983</ele><time>2022-05-08T15:27:12Z</time></trkpt>
<trkpt lat="46.26519" lon="7.31506"><ele>982.8</ele><time>2022-05-08T15:27:15Z</time></trkpt>
<trkpt lat="46.26498" lon="7.31505"><ele>982</ele><time>2022-05-08T15:27:18Z</time></trkpt>
<trkpt lat="46.26478" lon="7.31505"><ele>981.4</ele><time>2022-05-08T15:27:21Z</time></trkpt>
<trkpt lat="46.26463" lon="7.31506"><ele>981.4</ele><time>2022-05-08T15:27:23Z</time></trkpt>
<trkpt lat="46.26445" lon="7.3149"><ele>979.2</ele><time>2022-05-08T15:27:26Z</time></trkpt>
<trkpt lat="46.26438" lon="7.31466"><ele>975.8</ele><time>2022-05-08T15:27:28Z</time></trkpt>
<trkpt lat="46.26429" lon="7.31442"><ele>974</ele><time>2022-05-08T15:27:30Z</time></trkpt>
<trkpt lat="46.26417" lon="7.31423"><ele>972.4</ele><time>2022-05-08T15:27:32Z</time></trkpt>
<trkpt lat="46.26396" lon="7.31398"><ele>971.6</ele><time>2022-05-08T15:27:35Z</time></trkpt>
<trkpt lat="46.26382" lon="7.31383"><ele>970.8</ele><time>2022-05-08T15:27:37Z</time></trkpt>
<trkpt lat="46.26367" lon="7.31368"><ele>971.2</ele><time>2022-05-08T15:27:39Z</time></trkpt>
<trkpt lat="46.26352" lon="7.31353"><ele>971.2</ele><time>2022-05-08T15:27:41Z</time></trkpt>
<trkpt lat="46.26331" lon="7.31332"><ele>970.8</ele><time>2022-05-08T15:27:44Z</time></trkpt>
<trkpt lat="46.2631" lon="7.31311"><ele>970.8</ele><time>2022-05-08T15:27:47Z</time></trkpt>
<trkpt lat="46.26289" lon="7.31291"><ele>970.2</ele><time>2022-05-08T15:27:50Z</time></trkpt>
<trkpt lat="46.26271" lon="7.31267"><ele>969.4</ele><time>2022-05-08T15:27:53Z</time></trkpt>
<trkpt lat="46.26255" lon="7.31242"><ele>968.8</ele><time>2022-05-08T15:27:56Z</time></trkpt>
<trkpt lat="46.26246" lon="7.31226"><ele>968.4</ele><time>2022-05-08T15:27:58Z</time></trkpt>
<trkpt lat="46.26238" lon="7.31211"><ele>967.2</ele><time>2022-05-08T15:28:00Z</time></trkpt>
<trkpt lat="46.26225" lon="7.31192"><ele>968</ele><time>2022-05-08T15:28:03Z</time></trkpt>
<trkpt lat="46.26208" lon="7.31171"><ele>967.6</ele><time>2022-05-08T15:28:07Z</time></trkpt>
<trkpt lat="46.26189" lon="7.31154"><ele>969.2</ele><time>2022-05-08T15:28:11Z</time></trkpt>
<trkpt lat="46.26171" lon="7.31135"><ele>970.6</ele><time>2022-05-08T15:28:15Z</time></trkpt>
<trkpt lat="46.26153" lon="7.31117"><ele>969.6</ele><time>2022-05-08T15:28:19Z</time></trkpt>
<trkpt lat="46.26136" lon="7.31095"><ele>969</ele><time>2022-05-08T15:28:23Z</time></trkpt>
<trkpt lat="46.26121" lon="7.3107"><ele>968.2</ele><time>2022-05-08T15:28:27Z</time></trkpt>
<trkpt lat="46.26117" lon="7.31064"><ele>968</ele><time>2022-05-08T15:28:28Z</time></trkpt>
<trkpt lat="46.26098" lon="7.3105"><ele>968</ele><time>2022-05-08T15:28:32Z</time></trkpt>
<trkpt lat="46.26093" lon="7.31049"><ele>968</ele><time>2022-05-08T15:28:33Z</time></trkpt>
<trkpt lat="46.26072" lon="7.31042"><ele>966.8</ele><time>2022-05-08T15:28:38Z</time></trkpt>
<trkpt lat="46.26053" lon="7.31035"><ele>968.2</ele><time>2022-05-08T15:28:42Z</time></trkpt>
<trkpt lat="46.26035" lon="7.3103"><ele>969</ele><time>2022-05-08T15:28:46Z</time></trkpt>
<trkpt lat="46.26017" lon="7.31027"><ele>969.8</ele><time>2022-05-08T15:28:50Z</time></trkpt>
<trkpt lat="46.26013" lon="7.31026"><ele>969.8</ele><time>2022-05-08T15:28:51Z</time></trkpt>
<trkpt lat="46.26" lon="7.31023"><ele>970.4</ele><time>2022-05-08T15:28:54Z</time></trkpt>
<trkpt lat="46.25987" lon="7.31022"><ele>971.2</ele><time>2022-05-08T15:28:57Z</time></trkpt>
<trkpt lat="46.25976" lon="7.31023"><ele>971</ele><time>2022-05-08T15:29:00Z</time></trkpt>
<trkpt lat="46.25968" lon="7.31025"><ele>971.4</ele><time>2022-05-08T15:29:02Z</time></trkpt>
<trkpt lat="46.25955" lon="7.31029"><ele>972</ele><time>2022-05-08T15:29:05Z</time></trkpt>
<trkpt lat="46.25936" lon="7.31024"><ele>971.8</ele><time>2022-05-08T15:29:10Z</time></trkpt>
<trkpt lat="46.25932" lon="7.31022"><ele>971.6</ele><time>2022-05-08T15:29:11Z</time></trkpt>
<trkpt lat="46.25913" lon="7.31003"><ele>970.4</ele><time>2022-05-08T15:29:15Z</time></trkpt>
<trkpt lat="46.25907" lon="7.30997"><ele>969.2</ele><time>2022-05-08T15:29:16Z</time></trkpt>
<trkpt lat="46.25885" lon="7.30975"><ele>967.4</ele><time>2022-05-08T15:29:19Z</time></trkpt>
<trkpt lat="46.25872" lon="7.30957"><ele>965.4</ele><time>2022-05-08T15:29:21Z</time></trkpt>
<trkpt lat="46.25859" lon="7.30925"><ele>962.6</ele><time>2022-05-08T15:29:24Z</time></trkpt>
<trkpt lat="46.25851" lon="7.30888"><ele>959.8</ele><time>2022-05-08T15:29:27Z</time></trkpt>
<trkpt lat="46.25847" lon="7.30862"><ele>958.4</ele><time>2022-05-08T15:29:29Z</time></trkpt>
<trkpt lat="46.25841" lon="7.30836"><ele>957</ele><time>2022-05-08T15:29:31Z</time></trkpt>
<trkpt lat="46.25837" lon="7.30823"><ele>956.2</ele><time>2022-05-08T15:29:32Z</time></trkpt>
<trkpt lat="46.25827" lon="7.308"><ele>954.6</ele><time>2022-05-08T15:29:34Z</time></trkpt>
<trkpt lat="46.25816" lon="7.30777"><ele>953.2</ele><time>2022-05-08T15:29:36Z</time></trkpt>
<trkpt lat="46.25811" lon="7.30764"><ele>952.8</ele><time>2022-05-08T15:29:37Z</time></trkpt>
<trkpt lat="46.25806" lon="7.30736"><ele>951</ele><time>2022-05-08T15:29:39Z</time></trkpt>
<trkpt lat="46.25802" lon="7.30709"><ele>949.8</ele><time>2022-05-08T15:29:41Z</time></trkpt>
<trkpt lat="46.25783" lon="7.30684"><ele>948.8</ele><time>2022-05-08T15:29:44Z</time></trkpt>
<trkpt lat="46.25764" lon="7.30681"><ele>947.8</ele><time>2022-05-08T15:29:46Z</time></trkpt>
<trkpt lat="46.25746" lon="7.30677"><ele>946.4</ele><time>2022-05-08T15:29:48Z</time></trkpt>
<trkpt lat="46.25729" lon="7.30666"><ele>945.2</ele><time>2022-05-08T15:29:50Z</time></trkpt>
<trkpt lat="46.25713" lon="7.30648"><ele>943.6</ele><time>2022-05-08T15:29:52Z</time></trkpt>
<trkpt lat="46.25696" lon="7.3063"><ele>942.6</ele><time>2022-05-08T15:29:54Z</time></trkpt>
<trkpt lat="46.25679" lon="7.30616"><ele>941.2</ele><time>2022-05-08T15:29:56Z</time></trkpt>
<trkpt lat="46.2566" lon="7.30606"><ele>940</ele><time>2022-05-08T15:29:58Z</time></trkpt>
<trkpt lat="46.25652" lon="7.30601"><ele>939.4</ele><time>2022-05-08T15:29:59Z</time></trkpt>
<trkpt lat="46.25638" lon="7.30584"><ele>937.4</ele><time>2022-05-08T15:30:01Z</time></trkpt>
<trkpt lat="46.25628" lon="7.30569"><ele>937</ele><time>2022-05-08T15:30:03Z</time></trkpt>
<trkpt lat="46.25624" lon="7.30589"><ele>933.4</ele><time>2022-05-08T15:30:08Z</time></trkpt>
<trkpt lat="46.25635" lon="7.30609"><ele>931.6</ele><time>2022-05-08T15:30:11Z</time></trkpt>
<trkpt lat="46.25645" lon="7.30624"><ele>930.2</ele><time>2022-05-08T15:30:13Z</time></trkpt>
<trkpt lat="46.25663" lon="7.30645"><ele>929.6</ele><time>2022-05-08T15:30:16Z</time></trkpt>
<trkpt lat="46.25683" lon="7.30673"><ele>928.2</ele><time>2022-05-08T15:30:19Z</time></trkpt>
<trkpt lat="46.25696" lon="7.30693"><ele>926.4</ele><time>2022-05-08T15:30:21Z</time></trkpt>
<trkpt lat="46.25709" lon="7.30712"><ele>924.8</ele><time>2022-05-08T15:30:23Z</time></trkpt>
<trkpt lat="46.25725" lon="7.30729"><ele>923.2</ele><time>2022-05-08T15:30:25Z</time></trkpt>
<trkpt lat="46.25734" lon="7.30735"><ele>922.6</ele><time>2022-05-08T15:30:26Z</time></trkpt>
<trkpt lat="46.25755" lon="7.3075"><ele>921.6</ele><time>2022-05-08T15:30:29Z</time></trkpt>
<trkpt lat="46.25743" lon="7.30756"><ele>921.2</ele><time>2022-05-08T15:30:34Z</time></trkpt>
<trkpt lat="46.25738" lon="7.30753"><ele>920.8</ele><time>2022-05-08T15:30:35Z</time></trkpt>
<trkpt lat="46.2572" lon="7.30743"><ele>919.2</ele><time>2022-05-08T15:30:38Z</time></trkpt>
<trkpt lat="46.25694" lon="7.30738"><ele>917.2</ele><time>2022-05-08T15:30:41Z</time></trkpt>
<trkpt lat="46.25684" lon="7.30736"><ele>916.2</ele><time>2022-05-08T15:30:42Z</time></trkpt>
<trkpt lat="46.25663" lon="7.30728"><ele>914.4</ele><time>2022-05-08T15:30:44Z</time></trkpt>
<trkpt lat="46.25642" lon="7.30719"><ele>911.8</ele><time>2022-05-08T15:30:46Z</time></trkpt>
<trkpt lat="46.2562" lon="7.30718"><ele>910</ele><time>2022-05-08T15:30:48Z</time></trkpt>
<trkpt lat="46.25599" lon="7.30724"><ele>908.2</ele><time>2022-05-08T15:30:50Z</time></trkpt>
<trkpt lat="46.25589" lon="7.30728"><ele>907.4</ele><time>2022-05-08T15:30:51Z</time></trkpt>
<trkpt lat="46.25571" lon="7.30732"><ele>905.8</ele><time>2022-05-08T15:30:53Z</time></trkpt>
<trkpt lat="46.25563" lon="7.30733"><ele>905.4</ele><time>2022-05-08T15:30:54Z</time></trkpt>
<trkpt lat="46.2554" lon="7.3072"><ele>904</ele><time>2022-05-08T15:30:57Z</time></trkpt>
<trkpt lat="46.25524" lon="7.30698"><ele>902.4</ele><time>2022-05-08T15:31:00Z</time></trkpt>
<trkpt lat="46.25511" lon="7.30674"><ele>901.4</ele><time>2022-05-08T15:31:03Z</time></trkpt>
<trkpt lat="46.25508" lon="7.30665"><ele>901</ele><time>2022-05-08T15:31:04Z</time></trkpt>
<trkpt lat="46.25501" lon="7.30649"><ele>900.4</ele><time>2022-05-08T15:31:06Z</time></trkpt>
<trkpt lat="46.25485" lon="7.30631"><ele>900.8</ele><time>2022-05-08T15:31:09Z</time></trkpt>
<trkpt lat="46.25479" lon="7.30627"><ele>900.6</ele><time>2022-05-08T15:31:10Z</time></trkpt>
<trkpt lat="46.25456" lon="7.30615"><ele>900</ele><time>2022-05-08T15:31:13Z</time></trkpt>
<trkpt lat="46.25432" lon="7.30602"><ele>897.6</ele><time>2022-05-08T15:31:16Z</time></trkpt>
<trkpt lat="46.25414" lon="7.30595"><ele>894.6</ele><time>2022-05-08T15:31:18Z</time></trkpt>
<trkpt lat="46.25396" lon="7.30589"><ele>893</ele><time>2022-05-08T15:31:20Z</time></trkpt>
<trkpt lat="46.25378" lon="7.30586"><ele>891.4</ele><time>2022-05-08T15:31:22Z</time></trkpt>
<trkpt lat="46.25359" lon="7.30582"><ele>890</ele><time>2022-05-08T15:31:24Z</time></trkpt>
<trkpt lat="46.2535" lon="7.30579"><ele>889.4</ele><time>2022-05-08T15:31:25Z</time></trkpt>
<trkpt lat="46.25333" lon="7.30565"><ele>888</ele><time>2022-05-08T15:31:27Z</time></trkpt>
<trkpt lat="46.25319" lon="7.30544"><ele>886.2</ele><time>2022-05-08T15:31:29Z</time></trkpt>
<trkpt lat="46.25311" lon="7.30534"><ele>885.4</ele><time>2022-05-08T15:31:30Z</time></trkpt>
<trkpt lat="46.25295" lon="7.30517"><ele>883.8</ele><time>2022-05-08T15:31:32Z</time></trkpt>
<trkpt lat="46.25277" lon="7.30504"><ele>881.8</ele><time>2022-05-08T15:31:34Z</time></trkpt>
<trkpt lat="46.25268" lon="7.30497"><ele>881</ele><time>2022-05-08T15:31:35Z</time></trkpt>
<trkpt lat="46.25253" lon="7.30476"><ele>879.2</ele><time>2022-05-08T15:31:37Z</time></trkpt>
<trkpt lat="46.25245" lon="7.3045"><ele>877.6</ele><time>2022-05-08T15:31:39Z</time></trkpt>
<trkpt lat="46.25241" lon="7.30436"><ele>876.8</ele><time>2022-05-08T15:31:40Z</time></trkpt>
<trkpt lat="46.25237" lon="7.30423"><ele>875.8</ele><time>2022-05-08T15:31:41Z</time></trkpt>
<trkpt lat="46.25223" lon="7.304"><ele>874.2</ele><time>2022-05-08T15:31:43Z</time></trkpt>
<trkpt lat="46.25208" lon="7.3038"><ele>872.6</ele><time>2022-05-08T15:31:45Z</time></trkpt>
<trkpt lat="46.25193" lon="7.3036"><ele>871.2</ele><time>2022-05-08T15:31:47Z</time></trkpt>
<trkpt lat="46.25177" lon="7.30342"><ele>869.6</ele><time>2022-05-08T15:31:49Z</time></trkpt>
<trkpt lat="46.25161" lon="7.30324"><ele>868</ele><time>2022-05-08T15:31:51Z</time></trkpt>
<trkpt lat="46.25144" lon="7.30306"><ele>866.4</ele><time>2022-05-08T15:31:53Z</time></trkpt>
<trkpt lat="46.25128" lon="7.30287"><ele>864.4</ele><time>2022-05-08T15:31:55Z</time></trkpt>
<trkpt lat="46.25111" lon="7.30269"><ele>863</ele><time>2022-05-08T15:31:57Z</time></trkpt>
<trkpt lat="46.25094" lon="7.30252"><ele>861.6</ele><time>2022-05-08T15:31:59Z</time></trkpt>
<trkpt lat="46.25076" lon="7.30236"><ele>860.4</ele><time>2022-05-08T15:32:01Z</time></trkpt>
<trkpt lat="46.25058" lon="7.30222"><ele>858.4</ele><time>2022-05-08T15:32:03Z</time></trkpt>
<trkpt lat="46.25038" lon="7.30212"><ele>856.4</ele><time>2022-05-08T15:32:05Z</time></trkpt>
<trkpt lat="46.25017" lon="7.30204"><ele>854.4</ele><time>2022-05-08T15:32:07Z</time></trkpt>
<trkpt lat="46.24997" lon="7.30198"><ele>852.4</ele><time>2022-05-08T15:32:09Z</time></trkpt>
<trkpt lat="46.24976" lon="7.30192"><ele>850.6</ele><time>2022-05-08T15:32:11Z</time></trkpt>
<trkpt lat="46.24955" lon="7.30186"><ele>848.8</ele><time>2022-05-08T15:32:13Z</time></trkpt>
<trkpt lat="46.24934" lon="7.30184"><ele>847.2</ele><time>2022-05-08T15:32:15Z</time></trkpt>
<trkpt lat="46.24913" lon="7.30189"><ele>845.8</ele><time>2022-05-08T15:32:17Z</time></trkpt>
<trkpt lat="46.24891" lon="7.30198"><ele>844</ele><time>2022-05-08T15:32:19Z</time></trkpt>
<trkpt lat="46.24869" lon="7.30205"><ele>842</ele><time>2022-05-08T15:32:21Z</time></trkpt>
<trkpt lat="46.24845" lon="7.30208"><ele>839.8</ele><time>2022-05-08T15:32:23Z</time></trkpt>
<trkpt lat="46.24833" lon="7.30209"><ele>838.8</ele><time>2022-05-08T15:32:24Z</time></trkpt>
<trkpt lat="46.24809" lon="7.30208"><ele>836.8</ele><time>2022-05-08T15:32:26Z</time></trkpt>
<trkpt lat="46.24785" lon="7.30206"><ele>835.4</ele><time>2022-05-08T15:32:28Z</time></trkpt>
<trkpt lat="46.24773" lon="7.30208"><ele>834.6</ele><time>2022-05-08T15:32:29Z</time></trkpt>
<trkpt lat="46.24751" lon="7.30215"><ele>832.8</ele><time>2022-05-08T15:32:31Z</time></trkpt>
<trkpt lat="46.2473" lon="7.3023"><ele>831.2</ele><time>2022-05-08T15:32:33Z</time></trkpt>
<trkpt lat="46.2472" lon="7.30239"><ele>830.4</ele><time>2022-05-08T15:32:34Z</time></trkpt>
<trkpt lat="46.24701" lon="7.30255"><ele>828.4</ele><time>2022-05-08T15:32:36Z</time></trkpt>
<trkpt lat="46.24682" lon="7.30271"><ele>826.6</ele><time>2022-05-08T15:32:38Z</time></trkpt>
<trkpt lat="46.24672" lon="7.30276"><ele>825.8</ele><time>2022-05-08T15:32:39Z</time></trkpt>
<trkpt lat="46.24652" lon="7.30279"><ele>824.2</ele><time>2022-05-08T15:32:41Z</time></trkpt>
<trkpt lat="46.24634" lon="7.30271"><ele>823.8</ele><time>2022-05-08T15:32:43Z</time></trkpt>
<trkpt lat="46.24617" lon="7.30245"><ele>821.2</ele><time>2022-05-08T15:32:46Z</time></trkpt>
<trkpt lat="46.24608" lon="7.30225"><ele>820.8</ele><time>2022-05-08T15:32:48Z</time></trkpt>
<trkpt lat="46.24597" lon="7.30192"><ele>819.4</ele><time>2022-05-08T15:32:51Z</time></trkpt>
<trkpt lat="46.24588" lon="7.3016"><ele>818.8</ele><time>2022-05-08T15:32:54Z</time></trkpt>
<trkpt lat="46.24579" lon="7.30127"><ele>817.4</ele><time>2022-05-08T15:32:57Z</time></trkpt>
<trkpt lat="46.24569" lon="7.30095"><ele>817.2</ele><time>2022-05-08T15:33:00Z</time></trkpt>
<trkpt lat="46.24556" lon="7.30066"><ele>816</ele><time>2022-05-08T15:33:03Z</time></trkpt>
<trkpt lat="46.24541" lon="7.30038"><ele>815</ele><time>2022-05-08T15:33:06Z</time></trkpt>
<trkpt lat="46.24533" lon="7.30017"><ele>814.4</ele><time>2022-05-08T15:33:08Z</time></trkpt>
<trkpt lat="46.24528" lon="7.29981"><ele>813.8</ele><time>2022-05-08T15:33:11Z</time></trkpt>
<trkpt lat="46.24527" lon="7.29969"><ele>813.4</ele><time>2022-05-08T15:33:12Z</time></trkpt>
<trkpt lat="46.24526" lon="7.29932"><ele>813</ele><time>2022-05-08T15:33:15Z</time></trkpt>
<trkpt lat="46.24524" lon="7.29895"><ele>812.6</ele><time>2022-05-08T15:33:18Z</time></trkpt>
<trkpt lat="46.24522" lon="7.2987"><ele>811.8</ele><time>2022-05-08T15:33:20Z</time></trkpt>
<trkpt lat="46.24512" lon="7.29834"><ele>810.8</ele><time>2022-05-08T15:33:23Z</time></trkpt>
<trkpt lat="46.24496" lon="7.29806"><ele>809.4</ele><time>2022-05-08T15:33:26Z</time></trkpt>
<trkpt lat="46.2449" lon="7.29798"><ele>809.2</ele><time>2022-05-08T15:33:27Z</time></trkpt>
<trkpt lat="46.24472" lon="7.29773"><ele>808.2</ele><time>2022-05-08T15:33:30Z</time></trkpt>
<trkpt lat="46.24455" lon="7.2975"><ele>807.4</ele><time>2022-05-08T15:33:33Z</time></trkpt>
<trkpt lat="46.24438" lon="7.29727"><ele>806.6</ele><time>2022-05-08T15:33:36Z</time></trkpt>
<trkpt lat="46.24421" lon="7.29704"><ele>805.8</ele><time>2022-05-08T15:33:39Z</time></trkpt>
<trkpt lat="46.24404" lon="7.29683"><ele>805.2</ele><time>2022-05-08T15:33:42Z</time></trkpt>
<trkpt lat="46.24385" lon="7.29663"><ele>804.8</ele><time>2022-05-08T15:33:45Z</time></trkpt>
<trkpt lat="46.24367" lon="7.29645"><ele>804.2</ele><time>2022-05-08T15:33:48Z</time></trkpt>
<trkpt lat="46.24348" lon="7.29631"><ele>804</ele><time>2022-05-08T15:33:51Z</time></trkpt>
<trkpt lat="46.24327" lon="7.29625"><ele>804.2</ele><time>2022-05-08T15:33:54Z</time></trkpt>
<trkpt lat="46.24306" lon="7.29619"><ele>804.2</ele><time>2022-05-08T15:33:57Z</time></trkpt>
<trkpt lat="46.24287" lon="7.29612"><ele>804</ele><time>2022-05-08T15:34:00Z</time></trkpt>
<trkpt lat="46.24269" lon="7.29604"><ele>803.8</ele><time>2022-05-08T15:34:03Z</time></trkpt>
<trkpt lat="46.24251" lon="7.29597"><ele>803.6</ele><time>2022-05-08T15:34:06Z</time></trkpt>
<trkpt lat="46.24234" lon="7.29589"><ele>803.4</ele><time>2022-05-08T15:34:09Z</time></trkpt>
<trkpt lat="46.24216" lon="7.29582"><ele>803.8</ele><time>2022-05-08T15:34:12Z</time></trkpt>
<trkpt lat="46.24198" lon="7.29579"><ele>804.2</ele><time>2022-05-08T15:34:15Z</time></trkpt>
<trkpt lat="46.2418" lon="7.29578"><ele>804.2</ele><time>2022-05-08T15:34:18Z</time></trkpt>
<trkpt lat="46.24168" lon="7.29577"><ele>804.4</ele><time>2022-05-08T15:34:20Z</time></trkpt>
<trkpt lat="46.24145" lon="7.29577"><ele>804</ele><time>2022-05-08T15:34:24Z</time></trkpt>
<trkpt lat="46.24121" lon="7.29576"><ele>803.4</ele><time>2022-05-08T15:34:28Z</time></trkpt>
<trkpt lat="46.24101" lon="7.29574"><ele>803.8</ele><time>2022-05-08T15:34:31Z</time></trkpt>
<trkpt lat="46.24084" lon="7.29566"><ele>803.4</ele><time>2022-05-08T15:34:34Z</time></trkpt>
<trkpt lat="46.24078" lon="7.29562"><ele>803.4</ele><time>2022-05-08T15:34:35Z</time></trkpt>
<trkpt lat="46.24057" lon="7.29546"><ele>803.4</ele><time>2022-05-08T15:34:39Z</time></trkpt>
<trkpt lat="46.2404" lon="7.29533"><ele>802.6</ele><time>2022-05-08T15:34:42Z</time></trkpt>
<trkpt lat="46.24023" lon="7.29516"><ele>801.2</ele><time>2022-05-08T15:34:45Z</time></trkpt>
<trkpt lat="46.24006" lon="7.29497"><ele>800.2</ele><time>2022-05-08T15:34:48Z</time></trkpt>
<trkpt lat="46.23989" lon="7.29476"><ele>799.2</ele><time>2022-05-08T15:34:51Z</time></trkpt>
<trkpt lat="46.23971" lon="7.29453"><ele>797.8</ele><time>2022-05-08T15:34:54Z</time></trkpt>
<trkpt lat="46.23949" lon="7.2943"><ele>797.2</ele><time>2022-05-08T15:34:57Z</time></trkpt>
<trkpt lat="46.23928" lon="7.29409"><ele>796.4</ele><time>2022-05-08T15:35:00Z</time></trkpt>
<trkpt lat="46.23906" lon="7.29387"><ele>794.8</ele><time>2022-05-08T15:35:03Z</time></trkpt>
<trkpt lat="46.23886" lon="7.29363"><ele>792.6</ele><time>2022-05-08T15:35:06Z</time></trkpt>
<trkpt lat="46.2388" lon="7.29353"><ele>792</ele><time>2022-05-08T15:35:07Z</time></trkpt>
<trkpt lat="46.23865" lon="7.29323"><ele>790.6</ele><time>2022-05-08T15:35:10Z</time></trkpt>
<trkpt lat="46.2385" lon="7.29293"><ele>789</ele><time>2022-05-08T15:35:13Z</time></trkpt>
<trkpt lat="46.23837" lon="7.29265"><ele>787.6</ele><time>2022-05-08T15:35:16Z</time></trkpt>
<trkpt lat="46.23826" lon="7.29237"><ele>786.6</ele><time>2022-05-08T15:35:20Z</time></trkpt>
<trkpt lat="46.23834" lon="7.29213"><ele>789.4</ele><time>2022-05-08T15:35:25Z</time></trkpt>
<trkpt lat="46.23836" lon="7.2921"><ele>789.8</ele><time>2022-05-08T15:35:26Z</time></trkpt>
<trkpt lat="46.23844" lon="7.29184"><ele>792.4</ele><time>2022-05-08T15:35:34Z</time></trkpt>
<trkpt lat="46.23846" lon="7.29175"><ele>793.4</ele><time>2022-05-08T15:35:37Z</time></trkpt>
<trkpt lat="46.23844" lon="7.29159"><ele>795.2</ele><time>2022-05-08T15:35:42Z</time></trkpt>
<trkpt lat="46.23839" lon="7.2914"><ele>796.8</ele><time>2022-05-08T15:35:48Z</time></trkpt>
<trkpt lat="46.23815" lon="7.29094"><ele>795.8</ele><time>2022-05-08T15:36:03Z</time></trkpt>
<trkpt lat="46.23813" lon="7.29086"><ele>795.8</ele><time>2022-05-08T15:36:05Z</time></trkpt>
<trkpt lat="46.23806" lon="7.29065"><ele>796.2</ele><time>2022-05-08T15:36:10Z</time></trkpt>
<trkpt lat="46.238" lon="7.29043"><ele>796.2</ele><time>2022-05-08T15:36:15Z</time></trkpt>
<trkpt lat="46.23799" lon="7.29036"><ele>796</ele><time>2022-05-08T15:36:17Z</time></trkpt>
<trkpt lat="46.23798" lon="7.29032"><ele>795.8</ele><time>2022-05-08T15:36:19Z</time></trkpt>
<trkpt lat="46.23798" lon="7.29022"><ele>795.6</ele><time>2022-05-08T15:36:26Z</time></trkpt>
<trkpt lat="46.23798" lon="7.29021"><ele>796</ele><time>2022-05-08T15:36:27Z</time></trkpt>
<trkpt lat="46.23797" lon="7.29018"><ele>796.2</ele><time>2022-05-08T15:36:29Z</time></trkpt>
<trkpt lat="46.23799" lon="7.28994"><ele>796.6</ele><time>2022-05-08T15:36:37Z</time></trkpt>
<trkpt lat="46.23802" lon="7.28982"><ele>796.8</ele><time>2022-05-08T15:36:40Z</time></trkpt>
<trkpt lat="46.23803" lon="7.28977"><ele>797</ele><time>2022-05-08T15:36:41Z</time></trkpt>
<trkpt lat="46.23803" lon="7.28953"><ele>797.2</ele><time>2022-05-08T15:36:46Z</time></trkpt>
<trkpt lat="46.23797" lon="7.28907"><ele>791.6</ele><time>2022-05-08T15:36:57Z</time></trkpt>
<trkpt lat="46.23796" lon="7.28896"><ele>790.2</ele><time>2022-05-08T15:37:00Z</time></trkpt>
<trkpt lat="46.23795" lon="7.28867"><ele>791.4</ele><time>2022-05-08T15:37:07Z</time></trkpt>
<trkpt lat="46.23793" lon="7.28853"><ele>792.2</ele><time>2022-05-08T15:37:11Z</time></trkpt>
<trkpt lat="46.23786" lon="7.28826"><ele>792</ele><time>2022-05-08T15:37:18Z</time></trkpt>
<trkpt lat="46.23785" lon="7.28824"><ele>792.4</ele><time>2022-05-08T15:37:19Z</time></trkpt>
<trkpt lat="46.23764" lon="7.28822"><ele>793.6</ele><time>2022-05-08T15:37:26Z</time></trkpt>
<trkpt lat="46.23743" lon="7.28815"><ele>793.6</ele><time>2022-05-08T15:37:30Z</time></trkpt>
<trkpt lat="46.23722" lon="7.288"><ele>793</ele><time>2022-05-08T15:37:34Z</time></trkpt>
<trkpt lat="46.23705" lon="7.28785"><ele>792.4</ele><time>2022-05-08T15:37:37Z</time></trkpt>
<trkpt lat="46.23688" lon="7.28766"><ele>789.6</ele><time>2022-05-08T15:37:40Z</time></trkpt>
<trkpt lat="46.23669" lon="7.28744"><ele>787</ele><time>2022-05-08T15:37:43Z</time></trkpt>
<trkpt lat="46.23663" lon="7.28735"><ele>785.8</ele><time>2022-05-08T15:37:44Z</time></trkpt>
<trkpt lat="46.23649" lon="7.28717"><ele>783.8</ele><time>2022-05-08T15:37:46Z</time></trkpt>
<trkpt lat="46.23636" lon="7.28697"><ele>781.8</ele><time>2022-05-08T15:37:48Z</time></trkpt>
<trkpt lat="46.23623" lon="7.28677"><ele>779.6</ele><time>2022-05-08T15:37:50Z</time></trkpt>
<trkpt lat="46.23606" lon="7.28651"><ele>777.2</ele><time>2022-05-08T15:37:53Z</time></trkpt>
<trkpt lat="46.23591" lon="7.28631"><ele>774.6</ele><time>2022-05-08T15:37:57Z</time></trkpt>
<trkpt lat="46.23589" lon="7.28627"><ele>774.2</ele><time>2022-05-08T15:37:58Z</time></trkpt>
<trkpt lat="46.23582" lon="7.28619"><ele>773</ele><time>2022-05-08T15:38:00Z</time></trkpt>
<trkpt lat="46.23577" lon="7.28603"><ele>770.4</ele><time>2022-05-08T15:38:02Z</time></trkpt>
<trkpt lat="46.23574" lon="7.28592"><ele>768.6</ele><time>2022-05-08T15:38:03Z</time></trkpt>
<trkpt lat="46.23567" lon="7.28569"><ele>765</ele><time>2022-05-08T15:38:05Z</time></trkpt>
<trkpt lat="46.23557" lon="7.28545"><ele>761.8</ele><time>2022-05-08T15:38:07Z</time></trkpt>
<trkpt lat="46.23549" lon="7.28517"><ele>758.2</ele><time>2022-05-08T15:38:09Z</time></trkpt>
<trkpt lat="46.2354" lon="7.28485"><ele>755.4</ele><time>2022-05-08T15:38:11Z</time></trkpt>
<trkpt lat="46.23532" lon="7.28453"><ele>752.6</ele><time>2022-05-08T15:38:13Z</time></trkpt>
<trkpt lat="46.23525" lon="7.28419"><ele>749.8</ele><time>2022-05-08T15:38:15Z</time></trkpt>
<trkpt lat="46.23518" lon="7.28388"><ele>747.4</ele><time>2022-05-08T15:38:17Z</time></trkpt>
<trkpt lat="46.23511" lon="7.28364"><ele>745.4</ele><time>2022-05-08T15:38:19Z</time></trkpt>
<trkpt lat="46.23499" lon="7.28342"><ele>743.2</ele><time>2022-05-08T15:38:22Z</time></trkpt>
<trkpt lat="46.23495" lon="7.28336"><ele>742.4</ele><time>2022-05-08T15:38:23Z</time></trkpt>
<trkpt lat="46.23488" lon="7.28302"><ele>738.4</ele><time>2022-05-08T15:38:27Z</time></trkpt>
<trkpt lat="46.23483" lon="7.28281"><ele>735.6</ele><time>2022-05-08T15:38:29Z</time></trkpt>
<trkpt lat="46.2347" lon="7.28254"><ele>731.4</ele><time>2022-05-08T15:38:32Z</time></trkpt>
<trkpt lat="46.23465" lon="7.28245"><ele>729.8</ele><time>2022-05-08T15:38:33Z</time></trkpt>
<trkpt lat="46.23447" lon="7.28219"><ele>724.6</ele><time>2022-05-08T15:38:36Z</time></trkpt>
<trkpt lat="46.2343" lon="7.28195"><ele>720.6</ele><time>2022-05-08T15:38:39Z</time></trkpt>
<trkpt lat="46.23425" lon="7.28188"><ele>719.6</ele><time>2022-05-08T15:38:40Z</time></trkpt>
<trkpt lat="46.23408" lon="7.28176"><ele>716.2</ele><time>2022-05-08T15:38:43Z</time></trkpt>
<trkpt lat="46.23404" lon="7.28172"><ele>715</ele><time>2022-05-08T15:38:44Z</time></trkpt>
<trkpt lat="46.23393" lon="7.28142"><ele>709.2</ele><time>2022-05-08T15:38:48Z</time></trkpt>
<trkpt lat="46.23385" lon="7.28111"><ele>705.2</ele><time>2022-05-08T15:38:51Z</time></trkpt>
<trkpt lat="46.23365" lon="7.28089"><ele>701</ele><time>2022-05-08T15:38:54Z</time></trkpt>
<trkpt lat="46.23351" lon="7.28074"><ele>698.2</ele><time>2022-05-08T15:38:56Z</time></trkpt>
<trkpt lat="46.2334" lon="7.28059"><ele>695.4</ele><time>2022-05-08T15:38:58Z</time></trkpt>
<trkpt lat="46.23318" lon="7.28046"><ele>691.8</ele><time>2022-05-08T15:39:01Z</time></trkpt>
<trkpt lat="46.23298" lon="7.28035"><ele>689.8</ele><time>2022-05-08T15:39:04Z</time></trkpt>
<trkpt lat="46.23286" lon="7.28026"><ele>687.6</ele><time>2022-05-08T15:39:07Z</time></trkpt>
<trkpt lat="46.2329" lon="7.28009"><ele>684.6</ele><time>2022-05-08T15:39:11Z</time></trkpt>
<trkpt lat="46.23305" lon="7.2799"><ele>681.8</ele><time>2022-05-08T15:39:15Z</time></trkpt>
<trkpt lat="46.23287" lon="7.27971"><ele>677.8</ele><time>2022-05-08T15:39:19Z</time></trkpt>
<trkpt lat="46.23263" lon="7.27958"><ele>675</ele><time>2022-05-08T15:39:22Z</time></trkpt>
<trkpt lat="46.23239" lon="7.27949"><ele>672.6</ele><time>2022-05-08T15:39:25Z</time></trkpt>
<trkpt lat="46.23219" lon="7.27939"><ele>672.2</ele><time>2022-05-08T15:39:28Z</time></trkpt>
<trkpt lat="46.23201" lon="7.27921"><ele>669</ele><time>2022-05-08T15:39:31Z</time></trkpt>
<trkpt lat="46.23197" lon="7.27914"><ele>666.6</ele><time>2022-05-08T15:39:32Z</time></trkpt>
<trkpt lat="46.23183" lon="7.27894"><ele>662.6</ele><time>2022-05-08T15:39:35Z</time></trkpt>
<trkpt lat="46.23179" lon="7.27887"><ele>661.6</ele><time>2022-05-08T15:39:36Z</time></trkpt>
<trkpt lat="46.23172" lon="7.27855"><ele>658.6</ele><time>2022-05-08T15:39:40Z</time></trkpt>
<trkpt lat="46.23171" lon="7.27846"><ele>657.6</ele><time>2022-05-08T15:39:41Z</time></trkpt>
<trkpt lat="46.23173" lon="7.27816"><ele>653.8</ele><time>2022-05-08T15:39:45Z</time></trkpt>
<trkpt lat="46.23174" lon="7.27805"><ele>651.8</ele><time>2022-05-08T15:39:47Z</time></trkpt>
<trkpt lat="46.23165" lon="7.27797"><ele>648.6</ele><time>2022-05-08T15:39:50Z</time></trkpt>
<trkpt lat="46.23155" lon="7.27802"><ele>646.8</ele><time>2022-05-08T15:39:52Z</time></trkpt>
<trkpt lat="46.23143" lon="7.27807"><ele>645.2</ele><time>2022-05-08T15:39:54Z</time></trkpt>
<trkpt lat="46.23122" lon="7.27801"><ele>645</ele><time>2022-05-08T15:39:58Z</time></trkpt>
<trkpt lat="46.23117" lon="7.27797"><ele>644.8</ele><time>2022-05-08T15:39:59Z</time></trkpt>
<trkpt lat="46.23104" lon="7.27786"><ele>645.2</ele><time>2022-05-08T15:40:02Z</time></trkpt>
<trkpt lat="46.23091" lon="7.27766"><ele>645.6</ele><time>2022-05-08T15:40:06Z</time></trkpt>
<trkpt lat="46.23083" lon="7.27751"><ele>646.6</ele><time>2022-05-08T15:40:09Z</time></trkpt>
<trkpt lat="46.23075" lon="7.27736"><ele>647.2</ele><time>2022-05-08T15:40:12Z</time></trkpt>
<trkpt lat="46.23061" lon="7.27716"><ele>644</ele><time>2022-05-08T15:40:16Z</time></trkpt>
<trkpt lat="46.23044" lon="7.27692"><ele>642.2</ele><time>2022-05-08T15:40:20Z</time></trkpt>
<trkpt lat="46.23027" lon="7.27672"><ele>640</ele><time>2022-05-08T15:40:23Z</time></trkpt>
<trkpt lat="46.23008" lon="7.2765"><ele>637.4</ele><time>2022-05-08T15:40:26Z</time></trkpt>
<trkpt lat="46.22987" lon="7.27629"><ele>632.8</ele><time>2022-05-08T15:40:29Z</time></trkpt>
<trkpt lat="46.22971" lon="7.27614"><ele>629.4</ele><time>2022-05-08T15:40:31Z</time></trkpt>
<trkpt lat="46.22955" lon="7.27596"><ele>626</ele><time>2022-05-08T15:40:33Z</time></trkpt>
<trkpt lat="46.22939" lon="7.27577"><ele>623.4</ele><time>2022-05-08T15:40:35Z</time></trkpt>
<trkpt lat="46.22932" lon="7.27567"><ele>622.6</ele><time>2022-05-08T15:40:36Z</time></trkpt>
<trkpt lat="46.22917" lon="7.27537"><ele>621.4</ele><time>2022-05-08T15:40:39Z</time></trkpt>
<trkpt lat="46.22912" lon="7.2753"><ele>621.2</ele><time>2022-05-08T15:40:40Z</time></trkpt>
<trkpt lat="46.22893" lon="7.27514"><ele>619</ele><time>2022-05-08T15:40:43Z</time></trkpt>
<trkpt lat="46.22872" lon="7.27496"><ele>615.6</ele><time>2022-05-08T15:40:46Z</time></trkpt>
<trkpt lat="46.22858" lon="7.27486"><ele>613</ele><time>2022-05-08T15:40:48Z</time></trkpt>
<trkpt lat="46.22833" lon="7.27472"><ele>609</ele><time>2022-05-08T15:40:51Z</time></trkpt>
<trkpt lat="46.22816" lon="7.27459"><ele>606.8</ele><time>2022-05-08T15:40:53Z</time></trkpt>
<trkpt lat="46.22795" lon="7.27437"><ele>603</ele><time>2022-05-08T15:40:56Z</time></trkpt>
<trkpt lat="46.22779" lon="7.27424"><ele>599.8</ele><time>2022-05-08T15:40:58Z</time></trkpt>
<trkpt lat="46.22763" lon="7.2741"><ele>596.8</ele><time>2022-05-08T15:41:00Z</time></trkpt>
<trkpt lat="46.2274" lon="7.27391"><ele>593</ele><time>2022-05-08T15:41:03Z</time></trkpt>
<trkpt lat="46.2272" lon="7.27375"><ele>589.6</ele><time>2022-05-08T15:41:06Z</time></trkpt>
<trkpt lat="46.227" lon="7.27362"><ele>585.8</ele><time>2022-05-08T15:41:09Z</time></trkpt>
<trkpt lat="46.22683" lon="7.27354"><ele>582.8</ele><time>2022-05-08T15:41:12Z</time></trkpt>
<trkpt lat="46.22679" lon="7.2735"><ele>582</ele><time>2022-05-08T15:41:13Z</time></trkpt>
<trkpt lat="46.22691" lon="7.27336"><ele>578</ele><time>2022-05-08T15:41:18Z</time></trkpt>
<trkpt lat="46.22703" lon="7.27317"><ele>575.2</ele><time>2022-05-08T15:41:21Z</time></trkpt>
<trkpt lat="46.22694" lon="7.2729"><ele>572.8</ele><time>2022-05-08T15:41:24Z</time></trkpt>
<trkpt lat="46.22675" lon="7.27265"><ele>569.2</ele><time>2022-05-08T15:41:27Z</time></trkpt>
<trkpt lat="46.22661" lon="7.27247"><ele>566.8</ele><time>2022-05-08T15:41:29Z</time></trkpt>
<trkpt lat="46.22648" lon="7.27227"><ele>564.2</ele><time>2022-05-08T15:41:31Z</time></trkpt>
<trkpt lat="46.22634" lon="7.27206"><ele>561.6</ele><time>2022-05-08T15:41:33Z</time></trkpt>
<trkpt lat="46.2262" lon="7.27187"><ele>559.2</ele><time>2022-05-08T15:41:35Z</time></trkpt>
<trkpt lat="46.22606" lon="7.27173"><ele>557</ele><time>2022-05-08T15:41:37Z</time></trkpt>
<trkpt lat="46.22586" lon="7.27167"><ele>554.2</ele><time>2022-05-08T15:41:40Z</time></trkpt>
<trkpt lat="46.22578" lon="7.27197"><ele>552.2</ele><time>2022-05-08T15:41:44Z</time></trkpt>
<trkpt lat="46.22578" lon="7.27214"><ele>552.6</ele><time>2022-05-08T15:41:46Z</time></trkpt>
<trkpt lat="46.22578" lon="7.27247"><ele>552.4</ele><time>2022-05-08T15:41:50Z</time></trkpt>
<trkpt lat="46.22578" lon="7.27273"><ele>551.6</ele><time>2022-05-08T15:41:53Z</time></trkpt>
<trkpt lat="46.22578" lon="7.27293"><ele>550.4</ele><time>2022-05-08T15:41:55Z</time></trkpt>
<trkpt lat="46.22578" lon="7.27315"><ele>549.6</ele><time>2022-05-08T15:41:57Z</time></trkpt>
<trkpt lat="46.22587" lon="7.27345"><ele>547.8</ele><time>2022-05-08T15:42:00Z</time></trkpt>
<trkpt lat="46.22597" lon="7.27381"><ele>544.4</ele><time>2022-05-08T15:42:03Z</time></trkpt>
<trkpt lat="46.226" lon="7.27406"><ele>542.6</ele><time>2022-05-08T15:42:05Z</time></trkpt>
<trkpt lat="46.22601" lon="7.27418"><ele>542</ele><time>2022-05-08T15:42:06Z</time></trkpt>
<trkpt lat="46.22613" lon="7.27446"><ele>541.2</ele><time>2022-05-08T15:42:09Z</time></trkpt>
<trkpt lat="46.22628" lon="7.27474"><ele>541.4</ele><time>2022-05-08T15:42:12Z</time></trkpt>
<trkpt lat="46.22637" lon="7.27491"><ele>542</ele><time>2022-05-08T15:42:14Z</time></trkpt>
<trkpt lat="46.22653" lon="7.27514"><ele>542.6</ele><time>2022-05-08T15:42:17Z</time></trkpt>
<trkpt lat="46.22662" lon="7.27531"><ele>543</ele><time>2022-05-08T15:42:19Z</time></trkpt>
<trkpt lat="46.22669" lon="7.27556"><ele>544.2</ele><time>2022-05-08T15:42:22Z</time></trkpt>
<trkpt lat="46.22672" lon="7.2757"><ele>545</ele><time>2022-05-08T15:42:24Z</time></trkpt>
<trkpt lat="46.22683" lon="7.27591"><ele>546.4</ele><time>2022-05-08T15:42:29Z</time></trkpt>
<trkpt lat="46.22696" lon="7.27613"><ele>547.6</ele><time>2022-05-08T15:42:35Z</time></trkpt>
<trkpt lat="46.22701" lon="7.27619"><ele>548.2</ele><time>2022-05-08T15:42:37Z</time></trkpt>
<trkpt lat="46.22703" lon="7.27623"><ele>548.6</ele><time>2022-05-08T15:42:38Z</time></trkpt>
<trkpt lat="46.22707" lon="7.27629"><ele>548.8</ele><time>2022-05-08T15:42:40Z</time></trkpt>
<trkpt lat="46.2272" lon="7.27649"><ele>549.6</ele><time>2022-05-08T15:42:46Z</time></trkpt>
<trkpt lat="46.22724" lon="7.27655"><ele>549.8</ele><time>2022-05-08T15:42:48Z</time></trkpt>
<trkpt lat="46.22739" lon="7.27676"><ele>550</ele><time>2022-05-08T15:42:55Z</time></trkpt>
<trkpt lat="46.22753" lon="7.27697"><ele>549.8</ele><time>2022-05-08T15:43:00Z</time></trkpt>
<trkpt lat="46.22764" lon="7.27717"><ele>549.2</ele><time>2022-05-08T15:43:04Z</time></trkpt>
<trkpt lat="46.2277" lon="7.27729"><ele>548.8</ele><time>2022-05-08T15:43:06Z</time></trkpt>
<trkpt lat="46.22776" lon="7.27759"><ele>548</ele><time>2022-05-08T15:43:10Z</time></trkpt>
<trkpt lat="46.22779" lon="7.27774"><ele>547.2</ele><time>2022-05-08T15:43:12Z</time></trkpt>
<trkpt lat="46.2278" lon="7.27782"><ele>546.8</ele><time>2022-05-08T15:43:13Z</time></trkpt>
<trkpt lat="46.22783" lon="7.27789"><ele>546.2</ele><time>2022-05-08T15:43:14Z</time></trkpt>
<trkpt lat="46.22792" lon="7.27812"><ele>543.2</ele><time>2022-05-08T15:43:17Z</time></trkpt>
<trkpt lat="46.22804" lon="7.27837"><ele>539.6</ele><time>2022-05-08T15:43:20Z</time></trkpt>
<trkpt lat="46.22806" lon="7.27846"><ele>538.4</ele><time>2022-05-08T15:43:21Z</time></trkpt>
<trkpt lat="46.22803" lon="7.27875"><ele>534.6</ele><time>2022-05-08T15:43:24Z</time></trkpt>
<trkpt lat="46.22796" lon="7.27895"><ele>532</ele><time>2022-05-08T15:43:26Z</time></trkpt>
<trkpt lat="46.22784" lon="7.27924"><ele>527.8</ele><time>2022-05-08T15:43:29Z</time></trkpt>
<trkpt lat="46.22773" lon="7.2795"><ele>524.4</ele><time>2022-05-08T15:43:32Z</time></trkpt>
<trkpt lat="46.22767" lon="7.27969"><ele>521.2</ele><time>2022-05-08T15:43:35Z</time></trkpt>
<trkpt lat="46.22771" lon="7.27994"><ele>517.4</ele><time>2022-05-08T15:43:38Z</time></trkpt>
<trkpt lat="46.22774" lon="7.28004"><ele>516.2</ele><time>2022-05-08T15:43:39Z</time></trkpt>
<trkpt lat="46.22776" lon="7.28015"><ele>515</ele><time>2022-05-08T15:43:40Z</time></trkpt>
<trkpt lat="46.22776" lon="7.28051"><ele>512.4</ele><time>2022-05-08T15:43:43Z</time></trkpt>
<trkpt lat="46.22771" lon="7.28074"><ele>510.6</ele><time>2022-05-08T15:43:45Z</time></trkpt>
<trkpt lat="46.22762" lon="7.28109"><ele>508</ele><time>2022-05-08T15:43:48Z</time></trkpt>
<trkpt lat="46.22755" lon="7.28139"><ele>506.8</ele><time>2022-05-08T15:43:51Z</time></trkpt>
<trkpt lat="46.2275" lon="7.28157"><ele>505.2</ele><time>2022-05-08T15:43:54Z</time></trkpt>
<trkpt lat="46.22744" lon="7.28168"><ele>503.4</ele><time>2022-05-08T15:43:57Z</time></trkpt>
<trkpt lat="46.22741" lon="7.28181"><ele>500.8</ele><time>2022-05-08T15:44:00Z</time></trkpt>
<trkpt lat="46.22729" lon="7.28195"><ele>500</ele><time>2022-05-08T15:44:05Z</time></trkpt>
<trkpt lat="46.22711" lon="7.28197"><ele>498.6</ele><time>2022-05-08T15:44:08Z</time></trkpt>
<trkpt lat="46.22705" lon="7.28199"><ele>498.2</ele><time>2022-05-08T15:44:09Z</time></trkpt>
<trkpt lat="46.22691" lon="7.28203"><ele>497.4</ele><time>2022-05-08T15:44:13Z</time></trkpt>
<trkpt lat="46.22687" lon="7.28211"><ele>497.6</ele><time>2022-05-08T15:44:16Z</time></trkpt>
<trkpt lat="46.22688" lon="7.28232"><ele>497.8</ele><time>2022-05-08T15:44:20Z</time></trkpt>
<trkpt lat="46.22687" lon="7.28235"><ele>499.4</ele><time>2022-05-08T15:44:21Z</time></trkpt>
<trkpt lat="46.22665" lon="7.28224"><ele>498</ele><time>2022-05-08T15:44:26Z</time></trkpt>
<trkpt lat="46.22645" lon="7.28217"><ele>496</ele><time>2022-05-08T15:44:29Z</time></trkpt>
<trkpt lat="46.22626" lon="7.28214"><ele>494.4</ele><time>2022-05-08T15:44:32Z</time></trkpt>
<trkpt lat="46.22604" lon="7.28205"><ele>491.8</ele><time>2022-05-08T15:44:36Z</time></trkpt>
<trkpt lat="46.22596" lon="7.28202"><ele>491</ele><time>2022-05-08T15:44:38Z</time></trkpt>
<trkpt lat="46.22592" lon="7.282"><ele>490.4</ele><time>2022-05-08T15:44:39Z</time></trkpt>
<trkpt lat="46.22589" lon="7.28198"><ele>490</ele><time>2022-05-08T15:44:40Z</time></trkpt>
<trkpt lat="46.22583" lon="7.28197"><ele>488.2</ele><time>2022-05-08T15:44:44Z</time></trkpt>
<trkpt lat="46.22583" lon="7.28195"><ele>490.2</ele><time>2022-05-08T15:44:51Z</time></trkpt>
<trkpt lat="46.22583" lon="7.28194"><ele>490.4</ele><time>2022-05-08T15:44:53Z</time></trkpt>
<trkpt lat="46.22581" lon="7.28201"><ele>490.8</ele><time>2022-05-08T15:44:59Z</time></trkpt>
<trkpt lat="46.22577" lon="7.28226"><ele>491.4</ele><time>2022-05-08T15:45:04Z</time></trkpt>
<trkpt lat="46.22574" lon="7.28254"><ele>491.4</ele><time>2022-05-08T15:45:08Z</time></trkpt>
<trkpt lat="46.22571" lon="7.28281"><ele>492.2</ele><time>2022-05-08T15:45:12Z</time></trkpt>
<trkpt lat="46.22568" lon="7.2831"><ele>491.8</ele><time>2022-05-08T15:45:16Z</time></trkpt>
<trkpt lat="46.22566" lon="7.28316"><ele>491.8</ele><time>2022-05-08T15:45:17Z</time></trkpt>
<trkpt lat="46.2256" lon="7.28329"><ele>492</ele><time>2022-05-08T15:45:20Z</time></trkpt>
<trkpt lat="46.22542" lon="7.28334"><ele>491.6</ele><time>2022-05-08T15:45:24Z</time></trkpt>
<trkpt lat="46.22523" lon="7.28344"><ele>490.8</ele><time>2022-05-08T15:45:29Z</time></trkpt>
<trkpt lat="46.22513" lon="7.2835"><ele>490.6</ele><time>2022-05-08T15:45:31Z</time></trkpt>
<trkpt lat="46.22501" lon="7.28355"><ele>490.2</ele><time>2022-05-08T15:45:33Z</time></trkpt>
<trkpt lat="46.22484" lon="7.28363"><ele>488.6</ele><time>2022-05-08T15:45:36Z</time></trkpt>
<trkpt lat="46.22476" lon="7.28369"><ele>488.6</ele><time>2022-05-08T15:45:39Z</time></trkpt>
<trkpt lat="46.22475" lon="7.2837"><ele>488.4</ele><time>2022-05-08T15:45:40Z</time></trkpt>
<trkpt lat="46.22464" lon="7.28377"><ele>486.6</ele><time>2022-05-08T15:45:45Z</time></trkpt>
<trkpt lat="46.22446" lon="7.2839"><ele>485.6</ele><time>2022-05-08T15:45:49Z</time></trkpt>
<trkpt lat="46.22429" lon="7.28402"><ele>484.8</ele><time>2022-05-08T15:45:52Z</time></trkpt>
<trkpt lat="46.22411" lon="7.28413"><ele>483.6</ele><time>2022-05-08T15:45:55Z</time></trkpt>
<trkpt lat="46.22394" lon="7.28421"><ele>482.6</ele><time>2022-05-08T15:45:58Z</time></trkpt>
<trkpt lat="46.22378" lon="7.28429"><ele>481.8</ele><time>2022-05-08T15:46:01Z</time></trkpt>
<trkpt lat="46.22361" lon="7.28409"><ele>480.6</ele><time>2022-05-08T15:46:05Z</time></trkpt>
<trkpt lat="46.22356" lon="7.28394"><ele>480</ele><time>2022-05-08T15:46:07Z</time></trkpt>
<trkpt lat="46.22345" lon="7.28368"><ele>479</ele><time>2022-05-08T15:46:11Z</time></trkpt>
<trkpt lat="46.22336" lon="7.28345"><ele>479.2</ele><time>2022-05-08T15:46:15Z</time></trkpt>
<trkpt lat="46.22334" lon="7.28341"><ele>479.2</ele><time>2022-05-08T15:46:16Z</time></trkpt>
<trkpt lat="46.22329" lon="7.28327"><ele>479.8</ele><time>2022-05-08T15:46:20Z</time></trkpt>
<trkpt lat="46.22327" lon="7.28322"><ele>480.2</ele><time>2022-05-08T15:46:23Z</time></trkpt>
<trkpt lat="46.22326" lon="7.28321"><ele>480.6</ele><time>2022-05-08T15:46:27Z</time></trkpt>
<trkpt lat="46.22323" lon="7.28318"><ele>480.4</ele><time>2022-05-08T15:46:39Z</time></trkpt>
<trkpt lat="46.22322" lon="7.28319"><ele>480.4</ele><time>2022-05-08T15:46:43Z</time></trkpt>
<trkpt lat="46.22321" lon="7.28323"><ele>479.4</ele><time>2022-05-08T15:46:51Z</time></trkpt>
</trkseg></trk></gpx>